Observation data for Sterling City on 05/26/2019      Previous  Date  Next       Current Mesonet Observations  Soil Data  Daily Summary Page  Observations in Plain Language
KSC1 260500Z 14009KT 23/19 A2996 RMK A01 T02260189  RH  080%=      5-min Rain = 0
KSC1 260501Z 13007KT 23/19 A2996 RMK A01 T02250189  RH  080%=      5-min Rain = 0
KSC1 260502Z 14008KT 23/19 A2996 RMK A01 T02250189  RH  080%=      5-min Rain = 0
KSC1 260503Z 13008KT 23/19 A2996 RMK A01 T02250189  RH  080%=      5-min Rain = 0
KSC1 260504Z 14009KT 23/19 A2996 RMK A01 T02250189  RH  080%=      5-min Rain = 0
KSC1 260505Z 14007KT 22/19 A2996 RMK A01 T02240189  RH  080%=      5-min Rain = 0
KSC1 260506Z 14009KT 23/19 A2996 RMK A01 T02250189  RH  080%=      5-min Rain = 0
KSC1 260507Z 14010KT 22/19 A2996 RMK A01 T02240188  RH  080%=      5-min Rain = 0
KSC1 260508Z 14009KT 23/19 A2996 RMK A01 T02250188  RH  079%=      5-min Rain = 0
KSC1 260509Z 14008KT 23/19 A2996 RMK A01 T02250187  RH  079%=      5-min Rain = 0
KSC1 260510Z 14008KT 23/19 A2996 RMK A01 T02250188  RH  079%=      5-min Rain = 0
KSC1 260511Z 14008KT 23/19 A2996 RMK A01 T02250188  RH  080%=      5-min Rain = 0
KSC1 260512Z 14009KT 22/19 A2996 RMK A01 T02240188  RH  080%=      5-min Rain = 0
KSC1 260513Z 14008KT 22/19 A2996 RMK A01 T02240188  RH  080%=      5-min Rain = 0
KSC1 260514Z 14009KT 22/19 A2996 RMK A01 T02240188  RH  080%=      5-min Rain = 0
KSC1 260515Z 14008KT 22/19 A2996 RMK A01 T02230187  RH  080%=      5-min Rain = 0
KSC1 260516Z 14008KT 22/19 A2996 RMK A01 T02240188  RH  080%=      5-min Rain = 0
KSC1 260517Z 14008KT 22/19 A2996 RMK A01 T02230188  RH  080%=      5-min Rain = 0
KSC1 260518Z 14008KT 22/19 A2996 RMK A01 T02230188  RH  080%=      5-min Rain = 0
KSC1 260519Z 14009KT 22/19 A2996 RMK A01 T02230188  RH  080%=      5-min Rain = 0
KSC1 260520Z 14009KT 22/19 A2996 RMK A01 T02230187  RH  080%=      5-min Rain = 0
KSC1 260521Z 14009KT 22/19 A2996 RMK A01 T02240188  RH  080%=      5-min Rain = 0
KSC1 260522Z 13008KT 22/19 A2996 RMK A01 T02240188  RH  080%=      5-min Rain = 0
KSC1 260523Z 13008KT 22/19 A2996 RMK A01 T02230188  RH  080%=      5-min Rain = 0
KSC1 260524Z 13008KT 22/19 A2996 RMK A01 T02230188  RH  080%=      5-min Rain = 0
KSC1 260525Z 14008KT 22/19 A2996 RMK A01 T02230188  RH  081%=      5-min Rain = 0
KSC1 260526Z 13008KT 22/19 A2996 RMK A01 T02230188  RH  081%=      5-min Rain = 0
KSC1 260527Z 14009KT 22/19 A2996 RMK A01 T02230188  RH  081%=      5-min Rain = 0
KSC1 260528Z 13009KT 22/19 A2996 RMK A01 T02230188  RH  081%=      5-min Rain = 0
KSC1 260529Z 14009KT 22/19 A2996 RMK A01 T02220188  RH  081%=      5-min Rain = 0
KSC1 260530Z 14008KT 22/19 A2996 RMK A01 T02220188  RH  081%=      5-min Rain = 0
KSC1 260531Z 14009KT 22/19 A2996 RMK A01 T02220188  RH  081%=      5-min Rain = 0
KSC1 260532Z 13009KT 22/19 A2996 RMK A01 T02220188  RH  081%=      5-min Rain = 0
KSC1 260533Z 13006KT 22/19 A2996 RMK A01 T02220188  RH  081%=      5-min Rain = 0
KSC1 260534Z 14008KT 22/19 A2996 RMK A01 T02220188  RH  081%=      5-min Rain = 0
KSC1 260535Z 14008KT 22/19 A2996 RMK A01 T02220188  RH  081%=      5-min Rain = 0
KSC1 260536Z 13008KT 22/19 A2996 RMK A01 T02220188  RH  081%=      5-min Rain = 0
KSC1 260537Z 13008KT 22/19 A2996 RMK A01 T02230188  RH  081%=      5-min Rain = 0
KSC1 260538Z 13010G15KT 22/19 A2996 RMK A01 T02220188  RH  081%=      5-min Rain = 0
KSC1 260539Z 13008KT 22/19 A2996 RMK A01 T02230187  RH  080%=      5-min Rain = 0
KSC1 260540Z 13009KT 22/19 A2996 RMK A01 T02230188  RH  080%=      5-min Rain = 0
KSC1 260541Z 13010KT 22/19 A2996 RMK A01 T02230187  RH  080%=      5-min Rain = 0
KSC1 260542Z 13010KT 22/19 A2996 RMK A01 T02230187  RH  080%=      5-min Rain = 0
KSC1 260543Z 14010KT 22/19 A2996 RMK A01 T02230187  RH  080%=      5-min Rain = 0
KSC1 260544Z 13008KT 22/19 A2996 RMK A01 T02230188  RH  080%=      5-min Rain = 0
KSC1 260545Z 13010KT 22/19 A2996 RMK A01 T02230187  RH  080%=      5-min Rain = 0
KSC1 260546Z 13009KT 22/19 A2996 RMK A01 T02230188  RH  080%=      5-min Rain = 0
KSC1 260547Z 13008KT 22/19 A2996 RMK A01 T02240188  RH  080%=      5-min Rain = 0
KSC1 260548Z 13009KT 22/19 A2996 RMK A01 T02230188  RH  081%=      5-min Rain = 0
KSC1 260549Z 14009KT 22/19 A2996 RMK A01 T02230189  RH  081%=      5-min Rain = 0
KSC1 260550Z 13008KT 22/19 A2996 RMK A01 T02230188  RH  081%=      5-min Rain = 0
KSC1 260551Z 13008KT 22/19 A2996 RMK A01 T02230189  RH  081%=      5-min Rain = 0
KSC1 260552Z 13009KT 22/19 A2996 RMK A01 T02220189  RH  081%=      5-min Rain = 0
KSC1 260553Z 13009KT 22/19 A2996 RMK A01 T02220189  RH  081%=      5-min Rain = 0
KSC1 260554Z 13010KT 22/19 A2996 RMK A01 T02220189  RH  081%=      5-min Rain = 0
KSC1 260555Z 13009KT 22/19 A2996 RMK A01 T02220189  RH  081%=      5-min Rain = 0
KSC1 260556Z 13008KT 22/19 A2996 RMK A01 T02220189  RH  081%=      5-min Rain = 0
KSC1 260557Z 13008KT 22/19 A2996 RMK A01 T02220189  RH  082%=      5-min Rain = 0
KSC1 260558Z 13009KT 22/19 A2996 RMK A01 T02210189  RH  082%=      5-min Rain = 0
KSC1 260559Z 14008KT 22/19 A2996 RMK A01 T02210189  RH  082%=      5-min Rain = 0
KSC1 260600Z 13008KT 22/19 A2996 RMK A01 T02200189  RH  082%=      5-min Rain = 0
KSC1 260601Z 14007KT 22/19 A2996 RMK A01 T02200189  RH  083%=      5-min Rain = 0
KSC1 260602Z 14007KT 22/19 A2996 RMK A01 T02200189  RH  083%=      5-min Rain = 0
KSC1 260603Z 14007KT 22/19 A2996 RMK A01 T02190189  RH  083%=      5-min Rain = 0
KSC1 260604Z 14009KT 22/19 A2996 RMK A01 T02190189  RH  083%=      5-min Rain = 0
KSC1 260605Z 14008KT 22/19 A2996 RMK A01 T02190189  RH  083%=      5-min Rain = 0
KSC1 260606Z 14008KT 22/19 A2996 RMK A01 T02190189  RH  083%=      5-min Rain = 0
KSC1 260607Z 14009KT 22/19 A2996 RMK A01 T02190189  RH  083%=      5-min Rain = 0
KSC1 260608Z 13010KT 22/19 A2996 RMK A01 T02190189  RH  083%=      5-min Rain = 0
KSC1 260609Z 13009KT 22/19 A2996 RMK A01 T02190189  RH  083%=      5-min Rain = 0
KSC1 260610Z 14009KT 22/19 A2996 RMK A01 T02190189  RH  083%=      5-min Rain = 0
KSC1 260611Z 13008KT 22/19 A2996 RMK A01 T02190190  RH  083%=      5-min Rain = 0
KSC1 260612Z 13008KT 22/19 A2996 RMK A01 T02190190  RH  083%=      5-min Rain = 0
KSC1 260613Z 13009KT 22/19 A2996 RMK A01 T02190190  RH  084%=      5-min Rain = 0
KSC1 260614Z 13009KT 22/19 A2996 RMK A01 T02190190  RH  084%=      5-min Rain = 0
KSC1 260615Z 13010KT 22/19 A2996 RMK A01 T02180190  RH  084%=      5-min Rain = 0
KSC1 260616Z 14010KT 22/19 A2996 RMK A01 T02190190  RH  084%=      5-min Rain = 0
KSC1 260617Z 13010KT 22/19 A2996 RMK A01 T02190190  RH  084%=      5-min Rain = 0
KSC1 260618Z 13009KT 22/19 A2996 RMK A01 T02200190  RH  083%=      5-min Rain = 0
KSC1 260619Z 13008KT 22/19 A2996 RMK A01 T02190190  RH  083%=      5-min Rain = 0
KSC1 260620Z 13009KT 22/19 A2996 RMK A01 T02190190  RH  084%=      5-min Rain = 0
KSC1 260621Z 13010KT 22/19 A2996 RMK A01 T02190191  RH  084%=      5-min Rain = 0
KSC1 260622Z 14008KT 22/19 A2996 RMK A01 T02190191  RH  084%=      5-min Rain = 0
KSC1 260623Z 14008KT 22/19 A2996 RMK A01 T02190191  RH  084%=      5-min Rain = 0
KSC1 260624Z 13008KT 22/19 A2996 RMK A01 T02190192  RH  084%=      5-min Rain = 0
KSC1 260625Z 14007G12KT 22/19 A2996 RMK A01 T02190192  RH  085%=      5-min Rain = 0
KSC1 260626Z 13009KT 22/19 A2996 RMK A01 T02190192  RH  085%=      5-min Rain = 0
KSC1 260627Z 14009KT 22/19 A2996 RMK A01 T02180192  RH  085%=      5-min Rain = 0
KSC1 260628Z 14010KT 22/19 A2996 RMK A01 T02190192  RH  085%=      5-min Rain = 0
KSC1 260629Z 14008KT 22/19 A2996 RMK A01 T02190192  RH  085%=      5-min Rain = 0
KSC1 260630Z 13007G12KT 22/19 A2996 RMK A01 T02200193  RH  085%=      5-min Rain = 0
KSC1 260631Z 13008KT 22/19 A2996 RMK A01 T02200193  RH  085%=      5-min Rain = 0
KSC1 260632Z 14010KT 22/19 A2996 RMK A01 T02200193  RH  085%=      5-min Rain = 0
KSC1 260633Z 13007KT 22/19 A2996 RMK A01 T02190193  RH  085%=      5-min Rain = 0
KSC1 260634Z 13008KT 22/19 A2996 RMK A01 T02200193  RH  085%=      5-min Rain = 0
KSC1 260635Z 13008KT 22/19 A2996 RMK A01 T02190193  RH  085%=      5-min Rain = 0
KSC1 260636Z 14007KT 22/19 A2996 RMK A01 T02190194  RH  086%=      5-min Rain = 0
KSC1 260637Z 13008KT 22/19 A2996 RMK A01 T02190194  RH  086%=      5-min Rain = 0
KSC1 260638Z 13007KT 22/19 A2996 RMK A01 T02180194  RH  086%=      5-min Rain = 0
KSC1 260639Z 13008KT 22/19 A2996 RMK A01 T02180194  RH  086%=      5-min Rain = 0
KSC1 260640Z 13010KT 22/20 A2996 RMK A01 T02180195  RH  087%=      5-min Rain = 0
KSC1 260641Z 13008KT 22/19 A2996 RMK A01 T02180194  RH  087%=      5-min Rain = 0
KSC1 260642Z 12008KT 22/19 A2996 RMK A01 T02180194  RH  086%=      5-min Rain = 0
KSC1 260643Z 13007KT 22/19 A2996 RMK A01 T02180194  RH  086%=      5-min Rain = 0
KSC1 260644Z 13007KT 22/20 A2996 RMK A01 T02180195  RH  087%=      5-min Rain = 0
KSC1 260645Z 13009KT 22/20 A2996 RMK A01 T02180195  RH  087%=      5-min Rain = 0
KSC1 260646Z 13010KT 22/20 A2996 RMK A01 T02180195  RH  087%=      5-min Rain = 0
KSC1 260647Z 13009KT 22/20 A2996 RMK A01 T02180195  RH  087%=      5-min Rain = 0
KSC1 260648Z 13008KT 22/20 A2996 RMK A01 T02180195  RH  087%=      5-min Rain = 0
KSC1 260649Z 13009KT 22/20 A2995 RMK A01 T02170195  RH  087%=      5-min Rain = 0
KSC1 260650Z 13007KT 22/20 A2995 RMK A01 T02170196  RH  088%=      5-min Rain = 0
KSC1 260651Z 13007KT 22/20 A2995 RMK A01 T02170196  RH  088%=      5-min Rain = 0
KSC1 260652Z 13008KT 22/20 A2995 RMK A01 T02160196  RH  088%=      5-min Rain = 0
KSC1 260653Z 13009KT 22/20 A2995 RMK A01 T02160197  RH  088%=      5-min Rain = 0
KSC1 260654Z 13008G13KT 22/20 A2995 RMK A01 T02160196  RH  088%=      5-min Rain = 0
KSC1 260655Z 13009KT 22/20 A2995 RMK A01 T02170196  RH  088%=      5-min Rain = 0
KSC1 260656Z 13008KT 22/20 A2995 RMK A01 T02170196  RH  088%=      5-min Rain = 0
KSC1 260657Z 13008KT 22/20 A2995 RMK A01 T02170196  RH  088%=      5-min Rain = 0
KSC1 260658Z 13008KT 22/20 A2995 RMK A01 T02170196  RH  088%=      5-min Rain = 0
KSC1 260659Z 13007KT 22/20 A2995 RMK A01 T02170197  RH  089%=      5-min Rain = 0
KSC1 260700Z 13008KT 22/20 A2995 RMK A01 T02160197  RH  089%=      5-min Rain = 0
KSC1 260701Z 13007KT 22/20 A2995 RMK A01 T02160197  RH  089%=      5-min Rain = 0
KSC1 260702Z 13008KT 22/20 A2995 RMK A01 T02150198  RH  090%=      5-min Rain = 0
KSC1 260703Z 13008KT 22/20 A2995 RMK A01 T02150198  RH  090%=      5-min Rain = 0
KSC1 260704Z 12007KT 22/20 A2995 RMK A01 T02150198  RH  090%=      5-min Rain = 0
KSC1 260705Z 13007KT 22/20 A2995 RMK A01 T02150198  RH  090%=      5-min Rain = 0
KSC1 260706Z 12008KT 22/20 A2995 RMK A01 T02150198  RH  090%=      5-min Rain = 0
KSC1 260707Z 12007KT 21/20 A2995 RMK A01 T02140198  RH  091%=      5-min Rain = 0
KSC1 260708Z 12006KT 21/20 A2995 RMK A01 T02140198  RH  091%=      5-min Rain = 0
KSC1 260709Z 12006KT 21/20 A2995 RMK A01 T02140199  RH  091%=      5-min Rain = 0
KSC1 260710Z 12006KT 21/20 A2995 RMK A01 T02130199  RH  091%=      5-min Rain = 0
KSC1 260711Z 12006KT 21/20 A2995 RMK A01 T02130199  RH  092%=      5-min Rain = 0
KSC1 260712Z 12006KT 21/20 A2995 RMK A01 T02130199  RH  092%=      5-min Rain = 0
KSC1 260713Z 12007KT 21/20 A2995 RMK A01 T02120199  RH  092%=      5-min Rain = 0
KSC1 260714Z 12006KT 21/20 A2995 RMK A01 T02120199  RH  092%=      5-min Rain = 0
KSC1 260715Z 12008KT 21/20 A2995 RMK A01 T02120199  RH  092%=      5-min Rain = 0
KSC1 260716Z 12007KT 21/20 A2995 RMK A01 T02120199  RH  092%=      5-min Rain = 0
KSC1 260717Z 12007KT 21/20 A2995 RMK A01 T02120199  RH  092%=      5-min Rain = 0
KSC1 260718Z 12006KT 21/20 A2995 RMK A01 T02120199  RH  092%=      5-min Rain = 0
KSC1 260719Z 12007KT 21/20 A2995 RMK A01 T02120199  RH  092%=      5-min Rain = 0
KSC1 260720Z 12007KT 21/20 A2995 RMK A01 T02120199  RH  092%=      5-min Rain = 0
KSC1 260721Z 12007KT 21/20 A2995 RMK A01 T02120199  RH  093%=      5-min Rain = 0
KSC1 260722Z 12008KT 21/20 A2995 RMK A01 T02120200  RH  093%=      5-min Rain = 0
KSC1 260723Z 12007KT 21/20 A2995 RMK A01 T02120200  RH  093%=      5-min Rain = 0
KSC1 260724Z 12007KT 21/20 A2995 RMK A01 T02120200  RH  093%=      5-min Rain = 0
KSC1 260725Z 12008KT 21/20 A2995 RMK A01 T02120200  RH  093%=      5-min Rain = 0
KSC1 260726Z 12008KT 21/20 A2995 RMK A01 T02120200  RH  093%=      5-min Rain = 0
KSC1 260727Z 12008KT 21/20 A2995 RMK A01 T02120200  RH  093%=      5-min Rain = 0
KSC1 260728Z 12007KT 21/20 A2995 RMK A01 T02120200  RH  093%=      5-min Rain = 0
KSC1 260729Z 12009KT 21/20 A2995 RMK A01 T02120200  RH  093%=      5-min Rain = 0
KSC1 260730Z 12008KT 21/20 A2995 RMK A01 T02120200  RH  093%=      5-min Rain = 0
KSC1 260731Z 12008KT 21/20 A2995 RMK A01 T02120200  RH  093%=      5-min Rain = 0
KSC1 260732Z 12007KT 21/20 A2995 RMK A01 T02130200  RH  093%=      5-min Rain = 0
KSC1 260733Z 12009KT 21/20 A2995 RMK A01 T02130201  RH  093%=      5-min Rain = 0
KSC1 260734Z 12008KT 21/20 A2995 RMK A01 T02130201  RH  093%=      5-min Rain = 0
KSC1 260735Z 12008KT 21/20 A2995 RMK A01 T02130201  RH  093%=      5-min Rain = 0
KSC1 260736Z 12008KT 21/20 A2995 RMK A01 T02130201  RH  093%=      5-min Rain = 0
KSC1 260737Z 13009KT 21/20 A2995 RMK A01 T02120201  RH  093%=      5-min Rain = 0
KSC1 260738Z 12009KT 21/20 A2995 RMK A01 T02130201  RH  093%=      5-min Rain = 0
KSC1 260739Z 13010KT 21/20 A2995 RMK A01 T02130201  RH  093%=      5-min Rain = 0
KSC1 260740Z 13009KT 21/20 A2995 RMK A01 T02130201  RH  093%=      5-min Rain = 0
KSC1 260741Z 13009KT 21/20 A2995 RMK A01 T02130201  RH  093%=      5-min Rain = 0
KSC1 260742Z 13009G15KT 21/20 A2995 RMK A01 T02130201  RH  093%=      5-min Rain = 0
KSC1 260743Z 13012KT 21/20 A2995 RMK A01 T02140202  RH  093%=      5-min Rain = 0
KSC1 260744Z 13008KT 21/20 A2995 RMK A01 T02140202  RH  093%=      5-min Rain = 0
KSC1 260745Z 14008KT 21/20 A2995 RMK A01 T02140202  RH  093%=      5-min Rain = 0
KSC1 260746Z 13010KT 21/20 A2994 RMK A01 T02140202  RH  093%=      5-min Rain = 0
KSC1 260747Z 13010KT 21/20 A2994 RMK A01 T02140202  RH  093%=      5-min Rain = 0
KSC1 260748Z 12009KT 21/20 A2994 RMK A01 T02140202  RH  093%=      5-min Rain = 0
KSC1 260749Z 12009KT 21/20 A2994 RMK A01 T02140202  RH  093%=      5-min Rain = 0
KSC1 260750Z 13009KT 21/20 A2994 RMK A01 T02140202  RH  093%=      5-min Rain = 0
KSC1 260751Z 13009KT 21/20 A2994 RMK A01 T02140202  RH  093%=      5-min Rain = 0
KSC1 260752Z 13009KT 21/20 A2994 RMK A01 T02130202  RH  093%=      5-min Rain = 0
KSC1 260753Z 13009KT 21/20 A2994 RMK A01 T02140202  RH  093%=      5-min Rain = 0
KSC1 260754Z 13010KT 21/20 A2994 RMK A01 T02130202  RH  093%=      5-min Rain = 0
KSC1 260755Z 13010KT 21/20 A2994 RMK A01 T02140202  RH  093%=      5-min Rain = 0
KSC1 260756Z 13009KT 21/20 A2994 RMK A01 T02140202  RH  093%=      5-min Rain = 0
KSC1 260757Z 13008KT 21/20 A2994 RMK A01 T02140202  RH  093%=      5-min Rain = 0
KSC1 260758Z 12009KT 21/20 A2994 RMK A01 T02140202  RH  093%=      5-min Rain = 0
KSC1 260759Z 12010KT 21/20 A2994 RMK A01 T02130203  RH  094%=      5-min Rain = 0
KSC1 260800Z 12009KT 21/20 A2994 RMK A01 T02130203  RH  094%=      5-min Rain = 0
KSC1 260801Z 12009KT 21/20 A2994 RMK A01 T02130203  RH  094%=      5-min Rain = 0
KSC1 260802Z 12008KT 21/20 A2994 RMK A01 T02120203  RH  094%=      5-min Rain = 0
KSC1 260803Z 12008KT 21/20 A2994 RMK A01 T02120203  RH  095%=      5-min Rain = 0
KSC1 260804Z 12008KT 21/20 A2994 RMK A01 T02120203  RH  095%=      5-min Rain = 0
KSC1 260805Z 12010KT 21/20 A2994 RMK A01 T02120203  RH  095%=      5-min Rain = 0
KSC1 260806Z 12009KT 21/20 A2994 RMK A01 T02120203  RH  095%=      5-min Rain = 0
KSC1 260807Z 12009KT 21/20 A2994 RMK A01 T02120203  RH  095%=      5-min Rain = 0
KSC1 260808Z 12010KT 21/20 A2994 RMK A01 T02120203  RH  094%=      5-min Rain = 0
KSC1 260809Z 12009KT 21/20 A2994 RMK A01 T02120203  RH  094%=      5-min Rain = 0
KSC1 260810Z 12010KT 21/20 A2994 RMK A01 T02120203  RH  094%=      5-min Rain = 0
KSC1 260811Z 12008KT 21/20 A2994 RMK A01 T02120203  RH  094%=      5-min Rain = 0
KSC1 260812Z 13008KT 21/20 A2994 RMK A01 T02120203  RH  094%=      5-min Rain = 0
KSC1 260813Z 12008KT 21/20 A2994 RMK A01 T02120203  RH  094%=      5-min Rain = 0
KSC1 260814Z 12008KT 21/20 A2994 RMK A01 T02110202  RH  094%=      5-min Rain = 0
KSC1 260815Z 12008KT 21/20 A2994 RMK A01 T02110202  RH  095%=      5-min Rain = 0
KSC1 260816Z 12009KT 21/20 A2994 RMK A01 T02110202  RH  095%=      5-min Rain = 0
KSC1 260817Z 12007KT 21/20 A2994 RMK A01 T02110203  RH  095%=      5-min Rain = 0
KSC1 260818Z 12008KT 21/20 A2994 RMK A01 T02110202  RH  095%=      5-min Rain = 0
KSC1 260819Z 12010KT 21/20 A2994 RMK A01 T02100203  RH  095%=      5-min Rain = 0
KSC1 260820Z 12007KT 21/20 A2994 RMK A01 T02100203  RH  096%=      5-min Rain = 0
KSC1 260821Z 12007G12KT 21/20 A2994 RMK A01 T02100203  RH  096%=      5-min Rain = 0
KSC1 260822Z 12009KT 21/20 A2994 RMK A01 T02100203  RH  096%=      5-min Rain = 0
KSC1 260823Z 12008KT 21/20 A2994 RMK A01 T02100203  RH  096%=      5-min Rain = 0
KSC1 260824Z 12007KT 21/20 A2994 RMK A01 T02100203  RH  096%=      5-min Rain = 0
KSC1 260825Z 12008KT 21/20 A2994 RMK A01 T02100203  RH  096%=      5-min Rain = 0
KSC1 260826Z 12008KT 21/20 A2994 RMK A01 T02100203  RH  096%=      5-min Rain = 0
KSC1 260827Z 13008KT 21/20 A2994 RMK A01 T02090203  RH  096%=      5-min Rain = 0
KSC1 260828Z 12009KT 21/20 A2994 RMK A01 T02090204  RH  097%=      5-min Rain = 0
KSC1 260829Z 12010KT 21/20 A2994 RMK A01 T02090204  RH  096%=      5-min Rain = 0
KSC1 260830Z 12008KT 21/20 A2994 RMK A01 T02100203  RH  096%=      5-min Rain = 0
KSC1 260831Z 12009KT 21/20 A2995 RMK A01 T02100203  RH  096%=      5-min Rain = 0
KSC1 260832Z 12008KT 21/20 A2995 RMK A01 T02100203  RH  096%=      5-min Rain = 0
KSC1 260833Z 13009KT 21/20 A2995 RMK A01 T02100203  RH  096%=      5-min Rain = 0
KSC1 260834Z 12009KT 21/20 A2994 RMK A01 T02100204  RH  096%=      5-min Rain = 0
KSC1 260835Z 13009KT 21/20 A2994 RMK A01 T02100204  RH  096%=      5-min Rain = 0
KSC1 260836Z 13009KT 21/20 A2995 RMK A01 T02100204  RH  096%=      5-min Rain = 0
KSC1 260837Z 13008KT 21/20 A2995 RMK A01 T02100204  RH  096%=      5-min Rain = 0
KSC1 260838Z 13008KT 21/20 A2995 RMK A01 T02100204  RH  096%=      5-min Rain = 0
KSC1 260839Z 13009KT 21/20 A2995 RMK A01 T02100204  RH  096%=      5-min Rain = 0
KSC1 260840Z 13009KT 21/20 A2995 RMK A01 T02100204  RH  096%=      5-min Rain = 0
KSC1 260841Z 12009KT 21/20 A2995 RMK A01 T02100203  RH  096%=      5-min Rain = 0
KSC1 260842Z 13008KT 21/20 A2995 RMK A01 T02100203  RH  096%=      5-min Rain = 0
KSC1 260843Z 13011KT 21/20 A2995 RMK A01 T02100203  RH  096%=      5-min Rain = 0
KSC1 260844Z 13009KT 21/20 A2995 RMK A01 T02100203  RH  096%=      5-min Rain = 0
KSC1 260845Z 12009KT 21/20 A2995 RMK A01 T02100203  RH  096%=      5-min Rain = 0
KSC1 260846Z 13010KT 21/20 A2995 RMK A01 T02100203  RH  096%=      5-min Rain = 0
KSC1 260847Z 12008KT 21/20 A2995 RMK A01 T02100203  RH  096%=      5-min Rain = 0
KSC1 260848Z 13009KT 21/20 A2995 RMK A01 T02100203  RH  096%=      5-min Rain = 0
KSC1 260849Z 12009KT 21/20 A2995 RMK A01 T02100203  RH  096%=      5-min Rain = 0
KSC1 260850Z 13008KT 21/20 A2994 RMK A01 T02100203  RH  096%=      5-min Rain = 0
KSC1 260851Z 13009KT 21/20 A2994 RMK A01 T02100203  RH  096%=      5-min Rain = 0
KSC1 260852Z 13009KT 21/20 A2994 RMK A01 T02090203  RH  096%=      5-min Rain = 0
KSC1 260853Z 13008KT 21/20 A2994 RMK A01 T02090203  RH  096%=      5-min Rain = 0
KSC1 260854Z 13007KT 21/20 A2994 RMK A01 T02090203  RH  096%=      5-min Rain = 0
KSC1 260855Z 12008KT 21/20 A2994 RMK A01 T02090203  RH  096%=      5-min Rain = 0
KSC1 260856Z 12009KT 21/20 A2995 RMK A01 T02090203  RH  097%=      5-min Rain = 0
KSC1 260857Z 12009KT 21/20 A2995 RMK A01 T02090203  RH  097%=      5-min Rain = 0
KSC1 260858Z 12009KT 21/20 A2995 RMK A01 T02080203  RH  097%=      5-min Rain = 0
KSC1 260859Z 13008KT 21/20 A2995 RMK A01 T02090203  RH  096%=      5-min Rain = 0
KSC1 260900Z 12008KT 21/20 A2995 RMK A01 T02090203  RH  096%=      5-min Rain = 0
KSC1 260901Z 12008KT 21/20 A2995 RMK A01 T02090203  RH  097%=      5-min Rain = 0
KSC1 260902Z 12009KT 21/20 A2995 RMK A01 T02080203  RH  097%=      5-min Rain = 0
KSC1 260903Z 12008KT 21/20 A2995 RMK A01 T02090203  RH  097%=      5-min Rain = 0
KSC1 260904Z 12008KT 21/20 A2995 RMK A01 T02090203  RH  097%=      5-min Rain = 0
KSC1 260905Z 12009KT 21/20 A2995 RMK A01 T02080204  RH  097%=      5-min Rain = 0
KSC1 260906Z 12009KT 21/20 A2995 RMK A01 T02090204  RH  097%=      5-min Rain = 0
KSC1 260907Z 12009KT 21/20 A2995 RMK A01 T02080203  RH  097%=      5-min Rain = 0
KSC1 260908Z 12010KT 21/20 A2995 RMK A01 T02090204  RH  097%=      5-min Rain = 0
KSC1 260909Z 12011KT 21/20 A2995 RMK A01 T02090203  RH  096%=      5-min Rain = 0
KSC1 260910Z 12010KT 21/20 A2995 RMK A01 T02100203  RH  096%=      5-min Rain = 0
KSC1 260911Z 12010KT 21/20 A2995 RMK A01 T02100203  RH  095%=      5-min Rain = 0
KSC1 260912Z 12009KT 21/20 A2995 RMK A01 T02100203  RH  095%=      5-min Rain = 0
KSC1 260913Z 12007KT 21/20 A2995 RMK A01 T02100203  RH  095%=      5-min Rain = 0
KSC1 260914Z 12008KT 21/20 A2995 RMK A01 T02100203  RH  095%=      5-min Rain = 0
KSC1 260915Z 13007KT 21/20 A2995 RMK A01 T02100203  RH  095%=      5-min Rain = 0
KSC1 260916Z 12010KT 21/20 A2995 RMK A01 T02100202  RH  095%=      5-min Rain = 0
KSC1 260917Z 12012KT 21/20 A2995 RMK A01 T02110202  RH  094%=      5-min Rain = 0
KSC1 260918Z 12009KT 21/20 A2995 RMK A01 T02110201  RH  094%=      5-min Rain = 0
KSC1 260919Z 12011KT 21/20 A2995 RMK A01 T02120201  RH  094%=      5-min Rain = 0
KSC1 260920Z 13010KT 21/20 A2995 RMK A01 T02120201  RH  094%=      5-min Rain = 0
KSC1 260921Z 12011KT 21/20 A2995 RMK A01 T02120201  RH  093%=      5-min Rain = 0
KSC1 260922Z 13011KT 21/20 A2995 RMK A01 T02120201  RH  093%=      5-min Rain = 0
KSC1 260923Z 13010G15KT 21/20 A2995 RMK A01 T02120200  RH  093%=      5-min Rain = 0
KSC1 260924Z 13012KT 21/20 A2995 RMK A01 T02120200  RH  093%=      5-min Rain = 0
KSC1 260925Z 13009KT 21/20 A2995 RMK A01 T02120200  RH  092%=      5-min Rain = 0
KSC1 260926Z 13008KT 21/20 A2995 RMK A01 T02130200  RH  092%=      5-min Rain = 0
KSC1 260927Z 13010G15KT 21/20 A2995 RMK A01 T02130200  RH  092%=      5-min Rain = 0
KSC1 260928Z 12011KT 21/20 A2995 RMK A01 T02130200  RH  092%=      5-min Rain = 0
KSC1 260929Z 13010KT 21/20 A2995 RMK A01 T02130200  RH  092%=      5-min Rain = 0
KSC1 260930Z 13010KT 21/20 A2995 RMK A01 T02130199  RH  092%=      5-min Rain = 0
KSC1 260931Z 13010KT 21/20 A2995 RMK A01 T02130199  RH  092%=      5-min Rain = 0
KSC1 260932Z 12011KT 21/20 A2995 RMK A01 T02120198  RH  092%=      5-min Rain = 0
KSC1 260933Z 14010KT 21/20 A2995 RMK A01 T02130198  RH  092%=      5-min Rain = 0
KSC1 260934Z 13011G16KT 21/20 A2995 RMK A01 T02130198  RH  091%=      5-min Rain = 0
KSC1 260935Z 13014KT 21/20 A2995 RMK A01 T02130197  RH  091%=      5-min Rain = 0
KSC1 260936Z 12012KT 21/20 A2995 RMK A01 T02130197  RH  091%=      5-min Rain = 0
KSC1 260937Z 12013KT 21/20 A2995 RMK A01 T02130197  RH  090%=      5-min Rain = 0
KSC1 260938Z 13011KT 21/20 A2995 RMK A01 T02130197  RH  090%=      5-min Rain = 0
KSC1 260939Z 12012KT 21/20 A2995 RMK A01 T02140197  RH  090%=      5-min Rain = 0
KSC1 260940Z 12010KT 21/20 A2995 RMK A01 T02130196  RH  090%=      5-min Rain = 0
KSC1 260941Z 13011G16KT 21/20 A2995 RMK A01 T02130196  RH  090%=      5-min Rain = 0
KSC1 260942Z 12011KT 21/20 A2995 RMK A01 T02130196  RH  090%=      5-min Rain = 0
KSC1 260943Z 12011KT 21/20 A2995 RMK A01 T02130196  RH  090%=      5-min Rain = 0
KSC1 260944Z 13012KT 21/20 A2995 RMK A01 T02130196  RH  090%=      5-min Rain = 0
KSC1 260945Z 12013KT 21/20 A2995 RMK A01 T02130195  RH  090%=      5-min Rain = 0
KSC1 260946Z 13012KT 21/20 A2995 RMK A01 T02130195  RH  089%=      5-min Rain = 0
KSC1 260947Z 12011KT 21/20 A2995 RMK A01 T02130195  RH  089%=      5-min Rain = 0
KSC1 260948Z 13010KT 21/20 A2995 RMK A01 T02130195  RH  089%=      5-min Rain = 0
KSC1 260949Z 13011KT 21/20 A2995 RMK A01 T02130195  RH  089%=      5-min Rain = 0
KSC1 260950Z 12010KT 21/20 A2995 RMK A01 T02130195  RH  089%=      5-min Rain = 0
KSC1 260951Z 13012KT 21/20 A2996 RMK A01 T02130195  RH  089%=      5-min Rain = 0
KSC1 260952Z 13009KT 21/20 A2996 RMK A01 T02130195  RH  089%=      5-min Rain = 0
KSC1 260953Z 13007KT 21/20 A2996 RMK A01 T02130195  RH  089%=      5-min Rain = 0
KSC1 260954Z 13009KT 21/20 A2996 RMK A01 T02130195  RH  090%=      5-min Rain = 0
KSC1 260955Z 13008KT 21/20 A2996 RMK A01 T02130195  RH  090%=      5-min Rain = 0
KSC1 260956Z 13008KT 21/20 A2996 RMK A01 T02120195  RH  090%=      5-min Rain = 0
KSC1 260957Z 13010KT 21/20 A2996 RMK A01 T02120195  RH  090%=      5-min Rain = 0
KSC1 260958Z 13010KT 21/20 A2996 RMK A01 T02120195  RH  090%=      5-min Rain = 0
KSC1 260959Z 13009G14KT 21/20 A2996 RMK A01 T02120195  RH  090%=      5-min Rain = 0
KSC1 261000Z 13009KT 21/20 A2996 RMK A01 T02120195  RH  090%=      5-min Rain = 0
KSC1 261001Z 13009G14KT 21/20 A2996 RMK A01 T02120195  RH  090%=      5-min Rain = 0
KSC1 261002Z 13010KT 21/20 A2996 RMK A01 T02120195  RH  090%=      5-min Rain = 0
KSC1 261003Z 12010G15KT 21/20 A2996 RMK A01 T02120195  RH  090%=      5-min Rain = 0
KSC1 261004Z 13011KT 21/20 A2996 RMK A01 T02120195  RH  090%=      5-min Rain = 0
KSC1 261005Z 13010KT 21/19 A2996 RMK A01 T02120194  RH  090%=      5-min Rain = 0
KSC1 261006Z 12011KT 21/19 A2996 RMK A01 T02120194  RH  089%=      5-min Rain = 0
KSC1 261007Z 12011KT 21/19 A2996 RMK A01 T02120194  RH  089%=      5-min Rain = 0
KSC1 261008Z 12009G16KT 21/19 A2996 RMK A01 T02120194  RH  090%=      5-min Rain = 0
KSC1 261009Z 12011KT 21/19 A2996 RMK A01 T02120194  RH  089%=      5-min Rain = 0
KSC1 261010Z 12011KT 21/19 A2996 RMK A01 T02120194  RH  089%=      5-min Rain = 0
KSC1 261011Z 13010KT 21/19 A2996 RMK A01 T02120194  RH  089%=      5-min Rain = 0
KSC1 261012Z 13009KT 21/19 A2996 RMK A01 T02120193  RH  089%=      5-min Rain = 0
KSC1 261013Z 13009KT 21/19 A2996 RMK A01 T02120194  RH  089%=      5-min Rain = 0
KSC1 261014Z 12009KT 21/19 A2996 RMK A01 T02120194  RH  089%=      5-min Rain = 0
KSC1 261015Z 12011KT 21/19 A2996 RMK A01 T02120193  RH  089%=      5-min Rain = 0
KSC1 261016Z 13011G17KT 21/19 A2996 RMK A01 T02120193  RH  089%=      5-min Rain = 0
KSC1 261017Z 13010KT 21/19 A2996 RMK A01 T02120192  RH  089%=      5-min Rain = 0
KSC1 261018Z 13009KT 21/19 A2996 RMK A01 T02110192  RH  089%=      5-min Rain = 0
KSC1 261019Z 13012KT 21/19 A2996 RMK A01 T02120192  RH  089%=      5-min Rain = 0
KSC1 261020Z 14010KT 21/19 A2996 RMK A01 T02120192  RH  088%=      5-min Rain = 0
KSC1 261021Z 13009KT 21/19 A2996 RMK A01 T02120192  RH  088%=      5-min Rain = 0
KSC1 261022Z 13008KT 21/19 A2996 RMK A01 T02120192  RH  088%=      5-min Rain = 0
KSC1 261023Z 13010KT 21/19 A2996 RMK A01 T02110192  RH  088%=      5-min Rain = 0
KSC1 261024Z 13010KT 21/19 A2996 RMK A01 T02110192  RH  088%=      5-min Rain = 0
KSC1 261025Z 13011KT 21/19 A2996 RMK A01 T02110191  RH  088%=      5-min Rain = 0
KSC1 261026Z 13010KT 21/19 A2996 RMK A01 T02110191  RH  088%=      5-min Rain = 0
KSC1 261027Z 13010KT 21/19 A2996 RMK A01 T02110190  RH  088%=      5-min Rain = 0
KSC1 261028Z 12013KT 21/19 A2996 RMK A01 T02110190  RH  088%=      5-min Rain = 0
KSC1 261029Z 13012KT 21/19 A2996 RMK A01 T02110190  RH  088%=      5-min Rain = 0
KSC1 261030Z 14009KT 21/19 A2996 RMK A01 T02110190  RH  088%=      5-min Rain = 0
KSC1 261031Z 14010KT 21/19 A2996 RMK A01 T02110190  RH  088%=      5-min Rain = 0
KSC1 261032Z 13012G17KT 21/19 A2996 RMK A01 T02110190  RH  088%=      5-min Rain = 0
KSC1 261033Z 13011KT 21/19 A2996 RMK A01 T02110190  RH  088%=      5-min Rain = 0
KSC1 261034Z 13012G17KT 21/19 A2996 RMK A01 T02110189  RH  088%=      5-min Rain = 0
KSC1 261035Z 13012KT 21/19 A2997 RMK A01 T02110189  RH  087%=      5-min Rain = 0
KSC1 261036Z 13012KT 21/19 A2997 RMK A01 T02110189  RH  087%=      5-min Rain = 0
KSC1 261037Z 14011KT 21/19 A2997 RMK A01 T02110188  RH  087%=      5-min Rain = 0
KSC1 261038Z 13008KT 21/19 A2997 RMK A01 T02110189  RH  087%=      5-min Rain = 0
KSC1 261039Z 13009KT 21/19 A2997 RMK A01 T02100189  RH  087%=      5-min Rain = 0
KSC1 261040Z 13010KT 21/19 A2997 RMK A01 T02100189  RH  087%=      5-min Rain = 0
KSC1 261041Z 13009KT 21/19 A2997 RMK A01 T02100188  RH  087%=      5-min Rain = 0
KSC1 261042Z 13011G17KT 21/19 A2997 RMK A01 T02100188  RH  087%=      5-min Rain = 0
KSC1 261043Z 13011KT 21/19 A2997 RMK A01 T02100188  RH  087%=      5-min Rain = 0
KSC1 261044Z 13010G15KT 21/19 A2997 RMK A01 T02100188  RH  087%=      5-min Rain = 0
KSC1 261045Z 13010KT 21/19 A2997 RMK A01 T02100187  RH  087%=      5-min Rain = 0
KSC1 261046Z 13013KT 21/19 A2997 RMK A01 T02100188  RH  087%=      5-min Rain = 0
KSC1 261047Z 13011KT 21/19 A2997 RMK A01 T02100187  RH  087%=      5-min Rain = 0
KSC1 261048Z 13009KT 21/19 A2997 RMK A01 T02100187  RH  087%=      5-min Rain = 0
KSC1 261049Z 13010KT 21/19 A2997 RMK A01 T02090187  RH  087%=      5-min Rain = 0
KSC1 261050Z 13010KT 21/19 A2997 RMK A01 T02100187  RH  087%=      5-min Rain = 0
KSC1 261051Z 14012G17KT 21/19 A2997 RMK A01 T02100187  RH  087%=      5-min Rain = 0
KSC1 261052Z 14013G18KT 21/19 A2997 RMK A01 T02090186  RH  087%=      5-min Rain = 0
KSC1 261053Z 13011G16KT 21/19 A2997 RMK A01 T02100186  RH  086%=      5-min Rain = 0
KSC1 261054Z 13010KT 21/19 A2997 RMK A01 T02100186  RH  086%=      5-min Rain = 0
KSC1 261055Z 13009KT 21/19 A2997 RMK A01 T02100187  RH  087%=      5-min Rain = 0
KSC1 261056Z 12010KT 21/19 A2997 RMK A01 T02100187  RH  087%=      5-min Rain = 0
KSC1 261057Z 13008KT 21/19 A2997 RMK A01 T02090186  RH  087%=      5-min Rain = 0
KSC1 261058Z 13009G14KT 21/19 A2997 RMK A01 T02090187  RH  087%=      5-min Rain = 0
KSC1 261059Z 13010KT 21/19 A2997 RMK A01 T02090187  RH  087%=      5-min Rain = 0
KSC1 261100Z 13010G15KT 21/19 A2997 RMK A01 T02090187  RH  087%=      5-min Rain = 0
KSC1 261101Z 13011KT 21/19 A2997 RMK A01 T02090186  RH  087%=      5-min Rain = 0
KSC1 261102Z 12011KT 21/19 A2997 RMK A01 T02090186  RH  087%=      5-min Rain = 0
KSC1 261103Z 13010KT 21/19 A2997 RMK A01 T02090186  RH  087%=      5-min Rain = 0
KSC1 261104Z 12008KT 21/19 A2997 RMK A01 T02090186  RH  087%=      5-min Rain = 0
KSC1 261105Z 12008KT 21/19 A2997 RMK A01 T02090187  RH  087%=      5-min Rain = 0
KSC1 261106Z 13008KT 21/19 A2997 RMK A01 T02080187  RH  087%=      5-min Rain = 0
KSC1 261107Z 13009KT 21/19 A2997 RMK A01 T02080187  RH  088%=      5-min Rain = 0
KSC1 261108Z 13008KT 21/19 A2997 RMK A01 T02080187  RH  088%=      5-min Rain = 0
KSC1 261109Z 13010KT 21/19 A2997 RMK A01 T02080187  RH  088%=      5-min Rain = 0
KSC1 261110Z 13009KT 21/19 A2997 RMK A01 T02080186  RH  087%=      5-min Rain = 0
KSC1 261111Z 12008KT 21/19 A2997 RMK A01 T02080186  RH  087%=      5-min Rain = 0
KSC1 261112Z 12011KT 21/19 A2997 RMK A01 T02080186  RH  087%=      5-min Rain = 0
KSC1 261113Z 13011KT 21/19 A2997 RMK A01 T02080186  RH  087%=      5-min Rain = 0
KSC1 261114Z 13010KT 21/19 A2997 RMK A01 T02080186  RH  087%=      5-min Rain = 0
KSC1 261115Z 13008KT 21/19 A2997 RMK A01 T02080186  RH  087%=      5-min Rain = 0
KSC1 261116Z 13009KT 21/19 A2997 RMK A01 T02080186  RH  087%=      5-min Rain = 0
KSC1 261117Z 13010KT 21/19 A2997 RMK A01 T02080186  RH  087%=      5-min Rain = 0
KSC1 261118Z 13010KT 21/19 A2997 RMK A01 T02070186  RH  087%=      5-min Rain = 0
KSC1 261119Z 13009KT 21/19 A2997 RMK A01 T02080186  RH  087%=      5-min Rain = 0
KSC1 261120Z 13009KT 21/19 A2997 RMK A01 T02080185  RH  087%=      5-min Rain = 0
KSC1 261121Z 13008G14KT 21/19 A2997 RMK A01 T02080186  RH  087%=      5-min Rain = 0
KSC1 261122Z 13010KT 21/19 A2997 RMK A01 T02080186  RH  087%=      5-min Rain = 0
KSC1 261123Z 13010KT 21/19 A2997 RMK A01 T02070186  RH  087%=      5-min Rain = 0
KSC1 261124Z 13009KT 21/19 A2997 RMK A01 T02080186  RH  087%=      5-min Rain = 0
KSC1 261125Z 14009KT 21/19 A2997 RMK A01 T02080186  RH  087%=      5-min Rain = 0
KSC1 261126Z 13011KT 21/19 A2997 RMK A01 T02080186  RH  087%=      5-min Rain = 0
KSC1 261127Z 13010KT 21/19 A2997 RMK A01 T02080185  RH  087%=      5-min Rain = 0
KSC1 261128Z 13009KT 21/19 A2997 RMK A01 T02070185  RH  087%=      5-min Rain = 0
KSC1 261129Z 13008G13KT 21/19 A2998 RMK A01 T02080186  RH  087%=      5-min Rain = 0
KSC1 261130Z 13008KT 21/19 A2998 RMK A01 T02080186  RH  087%=      5-min Rain = 0
KSC1 261131Z 14010KT 21/19 A2998 RMK A01 T02070185  RH  087%=      5-min Rain = 0
KSC1 261132Z 14011KT 21/19 A2998 RMK A01 T02080185  RH  087%=      5-min Rain = 0
KSC1 261133Z 14010KT 21/19 A2998 RMK A01 T02080185  RH  087%=      5-min Rain = 0
KSC1 261134Z 14010KT 21/19 A2998 RMK A01 T02080185  RH  087%=      5-min Rain = 0
KSC1 261135Z 13007KT 21/19 A2998 RMK A01 T02080185  RH  087%=      5-min Rain = 0
KSC1 261136Z 14008KT 21/19 A2998 RMK A01 T02080185  RH  087%=      5-min Rain = 0
KSC1 261137Z 13008KT 21/19 A2998 RMK A01 T02080186  RH  087%=      5-min Rain = 0
KSC1 261138Z 13010KT 21/19 A2998 RMK A01 T02080186  RH  087%=      5-min Rain = 0
KSC1 261139Z 13009KT 21/19 A2998 RMK A01 T02080186  RH  087%=      5-min Rain = 0
KSC1 261140Z 13010KT 21/19 A2998 RMK A01 T02070185  RH  087%=      5-min Rain = 0
KSC1 261141Z 13009KT 21/19 A2998 RMK A01 T02080186  RH  087%=      5-min Rain = 0
KSC1 261142Z 13008G13KT 21/19 A2998 RMK A01 T02080186  RH  088%=      5-min Rain = 0
KSC1 261143Z 14010KT 21/19 A2998 RMK A01 T02080186  RH  088%=      5-min Rain = 0
KSC1 261144Z 13009KT 21/19 A2998 RMK A01 T02080186  RH  087%=      5-min Rain = 0
KSC1 261145Z 14008KT 21/19 A2998 RMK A01 T02080186  RH  088%=      5-min Rain = 0
KSC1 261146Z 13010KT 21/19 A2998 RMK A01 T02080187  RH  088%=      5-min Rain = 0
KSC1 261147Z 14009G14KT 21/19 A2998 RMK A01 T02070186  RH  088%=      5-min Rain = 0
KSC1 261148Z 14009KT 21/19 A2998 RMK A01 T02080186  RH  088%=      5-min Rain = 0
KSC1 261149Z 13010KT 21/19 A2998 RMK A01 T02080186  RH  088%=      5-min Rain = 0
KSC1 261150Z 14008KT 21/19 A2998 RMK A01 T02080186  RH  087%=      5-min Rain = 0
KSC1 261151Z 13008KT 21/19 A2999 RMK A01 T02080186  RH  088%=      5-min Rain = 0
KSC1 261152Z 14008KT 21/19 A2999 RMK A01 T02080187  RH  088%=      5-min Rain = 0
KSC1 261153Z 13008KT 21/19 A2999 RMK A01 T02080187  RH  088%=      5-min Rain = 0
KSC1 261154Z 13007KT 21/19 A2999 RMK A01 T02070187  RH  088%=      5-min Rain = 0
KSC1 261155Z 13009KT 21/19 A2999 RMK A01 T02070187  RH  088%=      5-min Rain = 0
KSC1 261156Z 13010KT 21/19 A2999 RMK A01 T02080187  RH  088%=      5-min Rain = 0
KSC1 261157Z 13008KT 21/19 A2999 RMK A01 T02080187  RH  088%=      5-min Rain = 0
KSC1 261158Z 13009KT 21/19 A2999 RMK A01 T02080187  RH  088%=      5-min Rain = 0
KSC1 261159Z 13008KT 21/19 A2999 RMK A01 T02080187  RH  088%=      5-min Rain = 0
KSC1 261200Z 14009KT 21/19 A2999 RMK A01 T02080187  RH  088%=      5-min Rain = 0
KSC1 261201Z 13007KT 21/19 A2999 RMK A01 T02080187  RH  088%=      5-min Rain = 0
KSC1 261202Z 13008KT 21/19 A2999 RMK A01 T02080187  RH  088%=      5-min Rain = 0
KSC1 261203Z 13008KT 21/19 A2999 RMK A01 T02080188  RH  088%=      5-min Rain = 0
KSC1 261204Z 13008KT 21/19 A2999 RMK A01 T02080188  RH  088%=      5-min Rain = 0
KSC1 261205Z 13007KT 21/19 A2999 RMK A01 T02080188  RH  088%=      5-min Rain = 0
KSC1 261206Z 12007KT 21/19 A2999 RMK A01 T02080188  RH  088%=      5-min Rain = 0
KSC1 261207Z 13009KT 21/19 A2999 RMK A01 T02080188  RH  088%=      5-min Rain = 0
KSC1 261208Z 13008KT 21/19 A2999 RMK A01 T02080188  RH  088%=      5-min Rain = 0
KSC1 261209Z 13010KT 21/19 A2999 RMK A01 T02080188  RH  088%=      5-min Rain = 0
KSC1 261210Z 13009KT 21/19 A2999 RMK A01 T02080189  RH  088%=      5-min Rain = 0
KSC1 261211Z 13009KT 21/19 A2999 RMK A01 T02090189  RH  088%=      5-min Rain = 0
KSC1 261212Z 12008KT 21/19 A2999 RMK A01 T02080188  RH  088%=      5-min Rain = 0
KSC1 261213Z 13009KT 21/19 A2999 RMK A01 T02090189  RH  088%=      5-min Rain = 0
KSC1 261214Z 12007KT 21/19 A2999 RMK A01 T02090189  RH  088%=      5-min Rain = 0
KSC1 261215Z 12007KT 21/19 A2999 RMK A01 T02080189  RH  089%=      5-min Rain = 0
KSC1 261216Z 12006KT 21/19 A2999 RMK A01 T02090190  RH  089%=      5-min Rain = 0
KSC1 261217Z 13007KT 21/19 A2999 RMK A01 T02080190  RH  089%=      5-min Rain = 0
KSC1 261218Z 12007KT 21/19 A2999 RMK A01 T02090190  RH  089%=      5-min Rain = 0
KSC1 261219Z 13010KT 21/19 A2999 RMK A01 T02090190  RH  089%=      5-min Rain = 0
KSC1 261220Z 12007KT 21/19 A2999 RMK A01 T02080189  RH  089%=      5-min Rain = 0
KSC1 261221Z 13007KT 21/19 A30 RMK A01 T02090190  RH  089%=      5-min Rain = 0
KSC1 261222Z 13008KT 21/19 A30 RMK A01 T02090190  RH  089%=      5-min Rain = 0
KSC1 261223Z 13008KT 21/19 A30 RMK A01 T02080189  RH  089%=      5-min Rain = 0
KSC1 261224Z 13008KT 21/19 A30 RMK A01 T02090189  RH  088%=      5-min Rain = 0
KSC1 261225Z 13008KT 21/19 A30 RMK A01 T02090189  RH  088%=      5-min Rain = 0
KSC1 261226Z 13008KT 21/19 A30 RMK A01 T02100189  RH  088%=      5-min Rain = 0
KSC1 261227Z 12009KT 21/19 A30 RMK A01 T02090189  RH  088%=      5-min Rain = 0
KSC1 261228Z 13007KT 21/19 A30 RMK A01 T02090189  RH  088%=      5-min Rain = 0
KSC1 261229Z 13007KT 21/19 A30 RMK A01 T02090190  RH  088%=      5-min Rain = 0
KSC1 261230Z 13009KT 21/19 A30 RMK A01 T02090190  RH  088%=      5-min Rain = 0
KSC1 261231Z 13008KT 21/19 A30 RMK A01 T02090189  RH  088%=      5-min Rain = 0
KSC1 261232Z 12007KT 21/19 A30 RMK A01 T02090190  RH  088%=      5-min Rain = 0
KSC1 261233Z 13007KT 21/19 A30 RMK A01 T02090189  RH  088%=      5-min Rain = 0
KSC1 261234Z 13006KT 21/19 A3001 RMK A01 T02090190  RH  088%=      5-min Rain = 0
KSC1 261235Z 13005KT 21/19 A3001 RMK A01 T02090190  RH  089%=      5-min Rain = 0
KSC1 261236Z 13006KT 21/19 A3001 RMK A01 T02100190  RH  089%=      5-min Rain = 0
KSC1 261237Z 13008KT 21/19 A3001 RMK A01 T02090190  RH  088%=      5-min Rain = 0
KSC1 261238Z 13009KT 21/19 A3001 RMK A01 T02100189  RH  088%=      5-min Rain = 0
KSC1 261239Z 13007KT 21/19 A3001 RMK A01 T02100190  RH  088%=      5-min Rain = 0
KSC1 261240Z 14010KT 21/19 A3001 RMK A01 T02100189  RH  088%=      5-min Rain = 0
KSC1 261241Z 13007KT 21/19 A3001 RMK A01 T02110189  RH  087%=      5-min Rain = 0
KSC1 261242Z 14010KT 21/19 A3001 RMK A01 T02110189  RH  087%=      5-min Rain = 0
KSC1 261243Z 15007KT 21/19 A3002 RMK A01 T02120189  RH  087%=      5-min Rain = 0
KSC1 261244Z 15006KT 21/19 A3002 RMK A01 T02120189  RH  087%=      5-min Rain = 0
KSC1 261245Z 14005KT 21/19 A3002 RMK A01 T02120189  RH  087%=      5-min Rain = 0
KSC1 261246Z 15007KT 21/19 A3002 RMK A01 T02120189  RH  087%=      5-min Rain = 0
KSC1 261247Z 14007KT 21/19 A3002 RMK A01 T02120190  RH  087%=      5-min Rain = 0
KSC1 261248Z 15009KT 21/19 A3002 RMK A01 T02120189  RH  087%=      5-min Rain = 0
KSC1 261249Z 14011KT 21/19 A3002 RMK A01 T02120188  RH  086%=      5-min Rain = 0
KSC1 261250Z 15012KT 21/19 A3002 RMK A01 T02130187  RH  085%=      5-min Rain = 0
KSC1 261251Z 15011KT 21/19 A3002 RMK A01 T02130188  RH  085%=      5-min Rain = 0
KSC1 261252Z 14011KT 21/19 A3002 RMK A01 T02130187  RH  085%=      5-min Rain = 0
KSC1 261253Z 14010KT 21/19 A3002 RMK A01 T02140186  RH  084%=      5-min Rain = 0
KSC1 261254Z 13010KT 21/19 A3002 RMK A01 T02140187  RH  084%=      5-min Rain = 0
KSC1 261255Z 14010KT 21/19 A3002 RMK A01 T02140187  RH  084%=      5-min Rain = 0
KSC1 261256Z 14011KT 21/19 A3002 RMK A01 T02140186  RH  084%=      5-min Rain = 0
KSC1 261257Z 14010G15KT 21/19 A3002 RMK A01 T02140186  RH  084%=      5-min Rain = 0
KSC1 261258Z 15013G19KT 21/19 A3002 RMK A01 T02140186  RH  084%=      5-min Rain = 0
KSC1 261259Z 14014G19KT 21/19 A3002 RMK A01 T02140185  RH  084%=      5-min Rain = 0
KSC1 261300Z 14012KT 21/19 A3002 RMK A01 T02140185  RH  083%=      5-min Rain = 0
KSC1 261301Z 14010KT 21/19 A3002 RMK A01 T02140185  RH  083%=      5-min Rain = 0
KSC1 261302Z 14010KT 21/19 A3002 RMK A01 T02140185  RH  084%=      5-min Rain = 0
KSC1 261303Z 14013KT 21/19 A3002 RMK A01 T02140185  RH  083%=      5-min Rain = 0
KSC1 261304Z 14011KT 21/18 A3002 RMK A01 T02140184  RH  083%=      5-min Rain = 0
KSC1 261305Z 14012G17KT 21/18 A3002 RMK A01 T02140184  RH  083%=      5-min Rain = 0
KSC1 261306Z 14013KT 21/18 A3003 RMK A01 T02140184  RH  083%=      5-min Rain = 0
KSC1 261307Z 14012G17KT 21/18 A3003 RMK A01 T02140184  RH  083%=      5-min Rain = 0
KSC1 261308Z 14012KT 21/18 A3003 RMK A01 T02140184  RH  083%=      5-min Rain = 0
KSC1 261309Z 14010KT 21/18 A3003 RMK A01 T02140183  RH  083%=      5-min Rain = 0
KSC1 261310Z 15010KT 21/18 A3003 RMK A01 T02140184  RH  083%=      5-min Rain = 0
KSC1 261311Z 15009KT 21/18 A3003 RMK A01 T02140184  RH  083%=      5-min Rain = 0
KSC1 261312Z 15010KT 21/18 A3003 RMK A01 T02140184  RH  083%=      5-min Rain = 0
KSC1 261313Z 14011KT 21/18 A3003 RMK A01 T02140184  RH  083%=      5-min Rain = 0
KSC1 261314Z 15012KT 21/18 A3003 RMK A01 T02140184  RH  083%=      5-min Rain = 0
KSC1 261315Z 15011KT 21/18 A3003 RMK A01 T02140184  RH  083%=      5-min Rain = 0
KSC1 261316Z 15010KT 21/18 A3003 RMK A01 T02140184  RH  083%=      5-min Rain = 0
KSC1 261317Z 14014KT 21/18 A3003 RMK A01 T02140184  RH  083%=      5-min Rain = 0
KSC1 261318Z 15011KT 21/18 A3003 RMK A01 T02140183  RH  083%=      5-min Rain = 0
KSC1 261319Z 14008KT 21/18 A3003 RMK A01 T02140184  RH  083%=      5-min Rain = 0
KSC1 261320Z 14011KT 21/18 A3003 RMK A01 T02140184  RH  083%=      5-min Rain = 0
KSC1 261321Z 14009KT 21/18 A3003 RMK A01 T02140184  RH  083%=      5-min Rain = 0
KSC1 261322Z 13009KT 21/18 A3003 RMK A01 T02140184  RH  083%=      5-min Rain = 0
KSC1 261323Z 13009KT 21/18 A3003 RMK A01 T02140184  RH  083%=      5-min Rain = 0
KSC1 261324Z 13009KT 21/19 A3003 RMK A01 T02140185  RH  083%=      5-min Rain = 0
KSC1 261325Z 14011KT 21/19 A3003 RMK A01 T02140185  RH  083%=      5-min Rain = 0
KSC1 261326Z 13008KT 21/18 A3003 RMK A01 T02140184  RH  083%=      5-min Rain = 0
KSC1 261327Z 13010KT 21/19 A3003 RMK A01 T02140185  RH  084%=      5-min Rain = 0
KSC1 261328Z 14008KT 21/19 A3003 RMK A01 T02140185  RH  084%=      5-min Rain = 0
KSC1 261329Z 14011KT 21/19 A3003 RMK A01 T02140185  RH  083%=      5-min Rain = 0
KSC1 261330Z 13011KT 21/18 A3003 RMK A01 T02140184  RH  083%=      5-min Rain = 0
KSC1 261331Z 14010KT 21/18 A3003 RMK A01 T02140184  RH  083%=      5-min Rain = 0
KSC1 261332Z 14009KT 21/19 A3003 RMK A01 T02140185  RH  083%=      5-min Rain = 0
KSC1 261333Z 13008KT 21/19 A3003 RMK A01 T02140185  RH  083%=      5-min Rain = 0
KSC1 261334Z 14010KT 21/19 A3003 RMK A01 T02140185  RH  083%=      5-min Rain = 0
KSC1 261335Z 15008KT 21/19 A3003 RMK A01 T02140185  RH  083%=      5-min Rain = 0
KSC1 261336Z 14011KT 21/19 A3003 RMK A01 T02140185  RH  083%=      5-min Rain = 0
KSC1 261337Z 14008KT 21/19 A3003 RMK A01 T02140185  RH  083%=      5-min Rain = 0
KSC1 261338Z 14008KT 21/18 A3003 RMK A01 T02140184  RH  083%=      5-min Rain = 0
KSC1 261339Z 15008KT 21/19 A3003 RMK A01 T02140185  RH  084%=      5-min Rain = 0
KSC1 261340Z 15007KT 21/19 A3003 RMK A01 T02140185  RH  084%=      5-min Rain = 0
KSC1 261341Z 14009KT 21/19 A3003 RMK A01 T02140186  RH  084%=      5-min Rain = 0
KSC1 261342Z 15011KT 21/18 A3003 RMK A01 T02140184  RH  083%=      5-min Rain = 0
KSC1 261343Z 14008KT 21/18 A3003 RMK A01 T02140184  RH  083%=      5-min Rain = 0
KSC1 261344Z 14009KT 21/18 A3003 RMK A01 T02140184  RH  083%=      5-min Rain = 0
KSC1 261345Z 14007KT 21/18 A3003 RMK A01 T02130184  RH  083%=      5-min Rain = 0
KSC1 261346Z 14008KT 21/19 A3003 RMK A01 T02140185  RH  084%=      5-min Rain = 0
KSC1 261347Z 15009KT 21/19 A3003 RMK A01 T02140185  RH  083%=      5-min Rain = 0
KSC1 261348Z 14009KT 21/18 A3003 RMK A01 T02140184  RH  083%=      5-min Rain = 0
KSC1 261349Z 15010KT 21/18 A3003 RMK A01 T02140184  RH  083%=      5-min Rain = 0
KSC1 261350Z 15009KT 22/18 A3003 RMK A01 T02150184  RH  083%=      5-min Rain = 0
KSC1 261351Z 14007KT 22/18 A3003 RMK A01 T02150184  RH  083%=      5-min Rain = 0
KSC1 261352Z 15006KT 22/19 A3003 RMK A01 T02150185  RH  083%=      5-min Rain = 0
KSC1 261353Z 14009KT 22/19 A3003 RMK A01 T02150185  RH  083%=      5-min Rain = 0
KSC1 261354Z 15012KT 22/18 A3003 RMK A01 T02150184  RH  082%=      5-min Rain = 0
KSC1 261355Z 14012KT 22/18 A3003 RMK A01 T02150183  RH  082%=      5-min Rain = 0
KSC1 261356Z 15011KT 22/18 A3003 RMK A01 T02160184  RH  082%=      5-min Rain = 0
KSC1 261357Z 13008KT 22/18 A3003 RMK A01 T02150183  RH  082%=      5-min Rain = 0
KSC1 261358Z 13010KT 22/19 A3003 RMK A01 T02160185  RH  082%=      5-min Rain = 0
KSC1 261359Z 14013KT 22/18 A3003 RMK A01 T02160183  RH  082%=      5-min Rain = 0
KSC1 261400Z 14013KT 22/18 A3003 RMK A01 T02160183  RH  081%=      5-min Rain = 0
KSC1 261401Z 14009KT 22/18 A3003 RMK A01 T02160184  RH  082%=      5-min Rain = 0
KSC1 261402Z 15010KT 22/18 A3003 RMK A01 T02160184  RH  082%=      5-min Rain = 0
KSC1 261403Z 14009KT 22/18 A3003 RMK A01 T02160184  RH  082%=      5-min Rain = 0
KSC1 261404Z 15009KT 22/18 A3003 RMK A01 T02160184  RH  082%=      5-min Rain = 0
KSC1 261405Z 13012G17KT 22/18 A3003 RMK A01 T02160184  RH  082%=      5-min Rain = 0
KSC1 261406Z 14012KT 22/18 A3003 RMK A01 T02160184  RH  082%=      5-min Rain = 0
KSC1 261407Z 14010KT 22/18 A3003 RMK A01 T02160184  RH  082%=      5-min Rain = 0
KSC1 261408Z 14008KT 22/19 A3003 RMK A01 T02160185  RH  082%=      5-min Rain = 0
KSC1 261409Z 14010KT 22/19 A3003 RMK A01 T02160186  RH  083%=      5-min Rain = 0
KSC1 261410Z 15012KT 22/19 A3003 RMK A01 T02170186  RH  083%=      5-min Rain = 0
KSC1 261411Z 14010G17KT 22/19 A3004 RMK A01 T02160185  RH  083%=      5-min Rain = 0
KSC1 261412Z 14011G17KT 22/19 A3004 RMK A01 T02160185  RH  083%=      5-min Rain = 0
KSC1 261413Z 14011KT 22/19 A3004 RMK A01 T02160186  RH  083%=      5-min Rain = 0
KSC1 261414Z 14011KT 22/19 A3004 RMK A01 T02160185  RH  083%=      5-min Rain = 0
KSC1 261415Z 14009KT 22/19 A3004 RMK A01 T02160186  RH  083%=      5-min Rain = 0
KSC1 261416Z 15007KT 22/19 A3004 RMK A01 T02160187  RH  084%=      5-min Rain = 0
KSC1 261417Z 14010KT 22/19 A3004 RMK A01 T02160188  RH  084%=      5-min Rain = 0
KSC1 261418Z 14014KT 22/19 A3004 RMK A01 T02160187  RH  083%=      5-min Rain = 0
KSC1 261419Z 15012KT 22/19 A3004 RMK A01 T02160187  RH  083%=      5-min Rain = 0
KSC1 261420Z 15012KT 22/19 A3004 RMK A01 T02160187  RH  083%=      5-min Rain = 0
KSC1 261421Z 15012G17KT 22/19 A3004 RMK A01 T02150187  RH  084%=      5-min Rain = 0
KSC1 261422Z 15013KT 22/19 A3004 RMK A01 T02150187  RH  084%=      5-min Rain = 0
KSC1 261423Z 15015KT 22/19 A3004 RMK A01 T02150187  RH  084%=      5-min Rain = 0
KSC1 261424Z 14015KT 22/19 A3004 RMK A01 T02150187  RH  084%=      5-min Rain = 0
KSC1 261425Z 15013G18KT 22/19 A3004 RMK A01 T02150187  RH  084%=      5-min Rain = 0
KSC1 261426Z 14014KT 21/19 A3004 RMK A01 T02140187  RH  085%=      5-min Rain = 0
KSC1 261427Z 15012KT 21/19 A3004 RMK A01 T02140187  RH  085%=      5-min Rain = 0
KSC1 261428Z 15012KT 21/19 A3004 RMK A01 T02140187  RH  085%=      5-min Rain = 0
KSC1 261429Z 15014KT 21/19 A3004 RMK A01 T02140187  RH  085%=      5-min Rain = 0
KSC1 261430Z 15012KT 21/19 A3004 RMK A01 T02140187  RH  085%=      5-min Rain = 0
KSC1 261431Z 15012KT 21/19 A3004 RMK A01 T02140188  RH  085%=      5-min Rain = 0
KSC1 261432Z 14010KT 21/19 A3004 RMK A01 T02140189  RH  085%=      5-min Rain = 0
KSC1 261433Z 14013KT 21/19 A3004 RMK A01 T02140189  RH  085%=      5-min Rain = 0
KSC1 261434Z 14012KT 22/19 A3003 RMK A01 T02150188  RH  085%=      5-min Rain = 0
KSC1 261435Z 14012G17KT 22/19 A3004 RMK A01 T02150188  RH  085%=      5-min Rain = 0
KSC1 261436Z 14012KT 22/19 A3004 RMK A01 T02150188  RH  085%=      5-min Rain = 0
KSC1 261437Z 13011KT 22/19 A3003 RMK A01 T02150188  RH  085%=      5-min Rain = 0
KSC1 261438Z 14011KT 22/19 A3003 RMK A01 T02150189  RH  085%=      5-min Rain = 0
KSC1 261439Z 14011G16KT 22/19 A3003 RMK A01 T02150189  RH  085%=      5-min Rain = 0
KSC1 261440Z 13013G18KT 22/19 A3003 RMK A01 T02160188  RH  084%=      5-min Rain = 0
KSC1 261441Z 14013KT 22/19 A3003 RMK A01 T02150188  RH  084%=      5-min Rain = 0
KSC1 261442Z 14012KT 22/19 A3003 RMK A01 T02160188  RH  084%=      5-min Rain = 0
KSC1 261443Z 14010G15KT 22/19 A3003 RMK A01 T02160188  RH  084%=      5-min Rain = 0
KSC1 261444Z 14012KT 22/19 A3003 RMK A01 T02160189  RH  085%=      5-min Rain = 0
KSC1 261445Z 14013KT 22/19 A3003 RMK A01 T02160189  RH  084%=      5-min Rain = 0
KSC1 261446Z 14012KT 22/19 A3003 RMK A01 T02160188  RH  084%=      5-min Rain = 0
KSC1 261447Z 14010KT 22/19 A3003 RMK A01 T02170189  RH  084%=      5-min Rain = 0
KSC1 261448Z 14013G19KT 22/19 A3003 RMK A01 T02170189  RH  084%=      5-min Rain = 0
KSC1 261449Z 14012G17KT 22/19 A3003 RMK A01 T02180189  RH  084%=      5-min Rain = 0
KSC1 261450Z 13011KT 22/19 A3003 RMK A01 T02180189  RH  084%=      5-min Rain = 0
KSC1 261451Z 14011KT 22/19 A3003 RMK A01 T02180189  RH  084%=      5-min Rain = 0
KSC1 261452Z 13016KT 22/19 A3002 RMK A01 T02190188  RH  083%=      5-min Rain = 0
KSC1 261453Z 14012G19KT 22/19 A3002 RMK A01 T02190189  RH  083%=      5-min Rain = 0
KSC1 261454Z 13014KT 22/19 A3002 RMK A01 T02190189  RH  083%=      5-min Rain = 0
KSC1 261455Z 13017G23KT 22/19 A3002 RMK A01 T02200189  RH  083%=      5-min Rain = 0
KSC1 261456Z 13017G22KT 22/19 A3002 RMK A01 T02200188  RH  082%=      5-min Rain = 0
KSC1 261457Z 13015G20KT 22/19 A3002 RMK A01 T02210189  RH  082%=      5-min Rain = 0
KSC1 261458Z 14014KT 22/19 A3002 RMK A01 T02210189  RH  082%=      5-min Rain = 0
KSC1 261459Z 13014KT 22/19 A3002 RMK A01 T02220190  RH  082%=      5-min Rain = 0
KSC1 261500Z 13014KT 22/19 A3002 RMK A01 T02230190  RH  081%=      5-min Rain = 0
KSC1 261501Z 14013KT 22/19 A3002 RMK A01 T02240189  RH  081%=      5-min Rain = 0
KSC1 261502Z 13012KT 22/19 A3002 RMK A01 T02240189  RH  081%=      5-min Rain = 0
KSC1 261503Z 13013KT 23/19 A3002 RMK A01 T02260191  RH  081%=      5-min Rain = 0
KSC1 261504Z 13014G21KT 23/19 A3002 RMK A01 T02270191  RH  080%=      5-min Rain = 0
KSC1 261505Z 13013KT 23/19 A3002 RMK A01 T02280190  RH  079%=      5-min Rain = 0
KSC1 261506Z 13013KT 23/19 A3002 RMK A01 T02270190  RH  080%=      5-min Rain = 0
KSC1 261507Z 13010KT 23/19 A3002 RMK A01 T02270190  RH  080%=      5-min Rain = 0
KSC1 261508Z 13010KT 23/19 A3002 RMK A01 T02270192  RH  080%=      5-min Rain = 0
KSC1 261509Z 13012G17KT 23/19 A3002 RMK A01 T02270190  RH  080%=      5-min Rain = 0
KSC1 261510Z 13015G20KT 23/19 A3002 RMK A01 T02270190  RH  079%=      5-min Rain = 0
KSC1 261511Z 13011KT 23/19 A3002 RMK A01 T02270190  RH  080%=      5-min Rain = 0
KSC1 261512Z 13017KT 23/19 A3002 RMK A01 T02260190  RH  080%=      5-min Rain = 0
KSC1 261513Z 14018KT 23/19 A3002 RMK A01 T02250188  RH  080%=      5-min Rain = 0
KSC1 261514Z 14017KT 22/19 A3002 RMK A01 T02240187  RH  080%=      5-min Rain = 0
KSC1 261515Z 14010KT 22/19 A3002 RMK A01 T02230189  RH  081%=      5-min Rain = 0
KSC1 261516Z 14015KT 22/19 A3003 RMK A01 T02230189  RH  081%=      5-min Rain = 0
KSC1 261517Z 14012KT 22/19 A3002 RMK A01 T02230188  RH  081%=      5-min Rain = 0
KSC1 261518Z 14016KT 22/19 A3002 RMK A01 T02230188  RH  081%=      5-min Rain = 0
KSC1 261519Z 14014G19KT 22/19 A3003 RMK A01 T02220188  RH  081%=      5-min Rain = 0
KSC1 261520Z 14014KT 22/19 A3002 RMK A01 T02220189  RH  081%=      5-min Rain = 0
KSC1 261521Z 14013KT 22/19 A3002 RMK A01 T02220189  RH  081%=      5-min Rain = 0
KSC1 261522Z 13011KT 22/19 A3002 RMK A01 T02220189  RH  082%=      5-min Rain = 0
KSC1 261523Z 13011KT 22/19 A3002 RMK A01 T02220190  RH  082%=      5-min Rain = 0
KSC1 261524Z 13013G19KT 22/19 A3002 RMK A01 T02220190  RH  082%=      5-min Rain = 0
KSC1 261525Z 13011G16KT 22/19 A3002 RMK A01 T02220190  RH  082%=      5-min Rain = 0
KSC1 261526Z 13012G18KT 22/19 A3002 RMK A01 T02230191  RH  082%=      5-min Rain = 0
KSC1 261527Z 13015KT 22/19 A3002 RMK A01 T02230190  RH  081%=      5-min Rain = 0
KSC1 261528Z 13018KT 22/19 A3002 RMK A01 T02230189  RH  081%=      5-min Rain = 0
KSC1 261529Z 13018KT 22/19 A3002 RMK A01 T02230189  RH  081%=      5-min Rain = 0
KSC1 261530Z 13017KT 22/19 A3002 RMK A01 T02230188  RH  081%=      5-min Rain = 0
KSC1 261531Z 13016KT 22/19 A3002 RMK A01 T02230189  RH  081%=      5-min Rain = 0
KSC1 261532Z 14015G20KT 22/19 A3002 RMK A01 T02220189  RH  081%=      5-min Rain = 0
KSC1 261533Z 14014G19KT 22/19 A3002 RMK A01 T02220189  RH  081%=      5-min Rain = 0
KSC1 261534Z 12012G18KT 22/19 A3002 RMK A01 T02220190  RH  082%=      5-min Rain = 0
KSC1 261535Z 13012G19KT 22/19 A3002 RMK A01 T02220190  RH  082%=      5-min Rain = 0
KSC1 261536Z 13012KT 22/19 A3002 RMK A01 T02220190  RH  082%=      5-min Rain = 0
KSC1 261537Z 14014KT 22/19 A3002 RMK A01 T02230190  RH  082%=      5-min Rain = 0
KSC1 261538Z 14014KT 22/19 A3002 RMK A01 T02230189  RH  081%=      5-min Rain = 0
KSC1 261539Z 14009KT 22/19 A3002 RMK A01 T02230190  RH  082%=      5-min Rain = 0
KSC1 261540Z 13012G19KT 22/19 A3002 RMK A01 T02230191  RH  082%=      5-min Rain = 0
KSC1 261541Z 14014G19KT 22/19 A3002 RMK A01 T02240191  RH  082%=      5-min Rain = 0
KSC1 261542Z 13014G20KT 22/19 A3002 RMK A01 T02240190  RH  081%=      5-min Rain = 0
KSC1 261543Z 14013KT 22/19 A3002 RMK A01 T02240191  RH  081%=      5-min Rain = 0
KSC1 261544Z 13012G17KT 23/19 A3002 RMK A01 T02250192  RH  082%=      5-min Rain = 0
KSC1 261545Z 13016KT 23/19 A3002 RMK A01 T02250191  RH  081%=      5-min Rain = 0
KSC1 261546Z 13012KT 23/19 A3002 RMK A01 T02250191  RH  081%=      5-min Rain = 0
KSC1 261547Z 13014G19KT 23/19 A3002 RMK A01 T02260192  RH  081%=      5-min Rain = 0
KSC1 261548Z 13015G20KT 23/19 A3002 RMK A01 T02260191  RH  080%=      5-min Rain = 0
KSC1 261549Z 13015G21KT 23/19 A3002 RMK A01 T02270192  RH  080%=      5-min Rain = 0
KSC1 261550Z 14014KT 23/19 A3002 RMK A01 T02280191  RH  080%=      5-min Rain = 0
KSC1 261551Z 14017G22KT 23/19 A3002 RMK A01 T02280191  RH  079%=      5-min Rain = 0
KSC1 261552Z 14014KT 23/19 A3002 RMK A01 T02280190  RH  079%=      5-min Rain = 0
KSC1 261553Z 13013KT 23/19 A3002 RMK A01 T02280191  RH  079%=      5-min Rain = 0
KSC1 261554Z 13010KT 23/19 A3002 RMK A01 T02280191  RH  080%=      5-min Rain = 0
KSC1 261555Z 14014KT 23/19 A3002 RMK A01 T02280192  RH  080%=      5-min Rain = 0
KSC1 261556Z 14015G20KT 23/19 A3002 RMK A01 T02280191  RH  079%=      5-min Rain = 0
KSC1 261557Z 14016KT 23/19 A3002 RMK A01 T02280190  RH  079%=      5-min Rain = 0
KSC1 261558Z 14018KT 23/19 A3002 RMK A01 T02280190  RH  079%=      5-min Rain = 0
KSC1 261559Z 13014G19KT 23/19 A3002 RMK A01 T02280190  RH  079%=      5-min Rain = 0
KSC1 261600Z 14010KT 23/19 A3002 RMK A01 T02290192  RH  080%=      5-min Rain = 0
KSC1 261601Z 13011KT 23/19 A3002 RMK A01 T02290194  RH  080%=      5-min Rain = 0
KSC1 261602Z 14011G17KT 23/19 A3002 RMK A01 T02300193  RH  080%=      5-min Rain = 0
KSC1 261603Z 14013G18KT 23/19 A3002 RMK A01 T02300193  RH  080%=      5-min Rain = 0
KSC1 261604Z 15014KT 23/19 A3002 RMK A01 T02300192  RH  079%=      5-min Rain = 0
KSC1 261605Z 15015KT 23/19 A3002 RMK A01 T02300192  RH  079%=      5-min Rain = 0
KSC1 261606Z 14011G18KT 23/19 A3002 RMK A01 T02300193  RH  080%=      5-min Rain = 0
KSC1 261607Z 14016KT 23/19 A3002 RMK A01 T02300192  RH  079%=      5-min Rain = 0
KSC1 261608Z 14014KT 23/19 A3002 RMK A01 T02300192  RH  079%=      5-min Rain = 0
KSC1 261609Z 14010KT 23/19 A3002 RMK A01 T02300193  RH  080%=      5-min Rain = 0
KSC1 261610Z 14011G16KT 23/19 A3002 RMK A01 T02300194  RH  080%=      5-min Rain = 0
KSC1 261611Z 14010G15KT 23/20 A3002 RMK A01 T02300195  RH  080%=      5-min Rain = 0
KSC1 261612Z 14013KT 23/19 A3002 RMK A01 T02300193  RH  080%=      5-min Rain = 0
KSC1 261613Z 14013G18KT 23/19 A3002 RMK A01 T02310193  RH  079%=      5-min Rain = 0
KSC1 261614Z 15014KT 23/19 A3002 RMK A01 T02300193  RH  079%=      5-min Rain = 0
KSC1 261615Z 14013KT 23/19 A3002 RMK A01 T02300193  RH  080%=      5-min Rain = 0
KSC1 261616Z 15011KT 23/19 A3002 RMK A01 T02310193  RH  080%=      5-min Rain = 0
KSC1 261617Z 14012G19KT 23/20 A3002 RMK A01 T02310195  RH  080%=      5-min Rain = 0
KSC1 261618Z 14013G19KT 23/19 A3002 RMK A01 T02310194  RH  079%=      5-min Rain = 0
KSC1 261619Z 15013G18KT 23/19 A3002 RMK A01 T02320194  RH  079%=      5-min Rain = 0
KSC1 261620Z 15010KT 23/19 A3002 RMK A01 T02320194  RH  079%=      5-min Rain = 0
KSC1 261621Z 13011G18KT 23/20 A3002 RMK A01 T02320195  RH  080%=      5-min Rain = 0
KSC1 261622Z 15013G19KT 23/19 A3002 RMK A01 T02320194  RH  079%=      5-min Rain = 0
KSC1 261623Z 14016G21KT 23/19 A3002 RMK A01 T02320194  RH  079%=      5-min Rain = 0
KSC1 261624Z 14012G18KT 23/19 A3002 RMK A01 T02320193  RH  079%=      5-min Rain = 0
KSC1 261625Z 14013KT 23/19 A3002 RMK A01 T02320194  RH  079%=      5-min Rain = 0
KSC1 261626Z 15017KT 23/19 A3002 RMK A01 T02320193  RH  079%=      5-min Rain = 0
KSC1 261627Z 15011KT 23/19 A3002 RMK A01 T02320193  RH  079%=      5-min Rain = 0
KSC1 261628Z 14011KT 23/19 A3002 RMK A01 T02320194  RH  079%=      5-min Rain = 0
KSC1 261629Z 14013KT 23/20 A3002 RMK A01 T02320195  RH  079%=      5-min Rain = 0
KSC1 261630Z 14016KT 23/20 A3002 RMK A01 T02330195  RH  079%=      5-min Rain = 0
KSC1 261631Z 14015G21KT 23/19 A3002 RMK A01 T02340194  RH  078%=      5-min Rain = 0
KSC1 261632Z 15011G16KT 24/20 A3002 RMK A01 T02350197  RH  079%=      5-min Rain = 0
KSC1 261633Z 15010KT 24/20 A3002 RMK A01 T02370198  RH  079%=      5-min Rain = 0
KSC1 261634Z 15010G18KT 24/20 A3002 RMK A01 T02380199  RH  079%=      5-min Rain = 0
KSC1 261635Z 14013G18KT 24/20 A3002 RMK A01 T02390197  RH  077%=      5-min Rain = 0
KSC1 261636Z 15016G21KT 24/20 A3002 RMK A01 T02390196  RH  077%=      5-min Rain = 0
KSC1 261637Z 15015KT 24/20 A3002 RMK A01 T02390197  RH  077%=      5-min Rain = 0
KSC1 261638Z 15016KT 24/20 A3002 RMK A01 T02390195  RH  076%=      5-min Rain = 0
KSC1 261639Z 15017KT 24/20 A3002 RMK A01 T02390196  RH  077%=      5-min Rain = 0
KSC1 261640Z 15014KT 24/20 A3002 RMK A01 T02380196  RH  077%=      5-min Rain = 0
KSC1 261641Z 16014G20KT 24/20 A3002 RMK A01 T02390197  RH  077%=      5-min Rain = 0
KSC1 261642Z 14012G18KT 24/20 A3002 RMK A01 T02400198  RH  077%=      5-min Rain = 0
KSC1 261643Z 14013G18KT 24/20 A3002 RMK A01 T02410198  RH  077%=      5-min Rain = 0
KSC1 261644Z 14013KT 24/20 A3002 RMK A01 T02420197  RH  076%=      5-min Rain = 0
KSC1 261645Z 14010G15KT 24/20 A3002 RMK A01 T02410198  RH  077%=      5-min Rain = 0
KSC1 261646Z 15012G17KT 24/20 A3002 RMK A01 T02410199  RH  077%=      5-min Rain = 0
KSC1 261647Z 14011KT 24/20 A3002 RMK A01 T02420199  RH  077%=      5-min Rain = 0
KSC1 261648Z 15014KT 24/20 A3002 RMK A01 T02420198  RH  076%=      5-min Rain = 0
KSC1 261649Z 16013KT 24/20 A3002 RMK A01 T02420199  RH  076%=      5-min Rain = 0
KSC1 261650Z 15010KT 24/20 A3002 RMK A01 T02420200  RH  077%=      5-min Rain = 0
KSC1 261651Z 16014KT 24/20 A3002 RMK A01 T02430199  RH  076%=      5-min Rain = 0
KSC1 261652Z 15012KT 24/20 A3002 RMK A01 T02430199  RH  076%=      5-min Rain = 0
KSC1 261653Z 16013G20KT 24/20 A3002 RMK A01 T02430199  RH  077%=      5-min Rain = 0
KSC1 261654Z 15015G20KT 24/20 A3002 RMK A01 T02420198  RH  076%=      5-min Rain = 0
KSC1 261655Z 15017KT 24/20 A3002 RMK A01 T02430198  RH  076%=      5-min Rain = 0
KSC1 261656Z 14015G21KT 24/20 A3002 RMK A01 T02420199  RH  077%=      5-min Rain = 0
KSC1 261657Z 15014KT 24/20 A3002 RMK A01 T02420197  RH  076%=      5-min Rain = 0
KSC1 261658Z 16014KT 24/20 A3002 RMK A01 T02420198  RH  077%=      5-min Rain = 0
KSC1 261659Z 15012KT 24/20 A3003 RMK A01 T02420199  RH  077%=      5-min Rain = 0
KSC1 261700Z 15013KT 24/20 A3003 RMK A01 T02420198  RH  077%=      5-min Rain = 0
KSC1 261701Z 14013KT 24/20 A3003 RMK A01 T02420198  RH  076%=      5-min Rain = 0
KSC1 261702Z 14011G16KT 24/20 A3003 RMK A01 T02420199  RH  077%=      5-min Rain = 0
KSC1 261703Z 14014KT 24/20 A3003 RMK A01 T02430199  RH  077%=      5-min Rain = 0
KSC1 261704Z 15013G18KT 24/20 A3002 RMK A01 T02430198  RH  076%=      5-min Rain = 0
KSC1 261705Z 16013KT 24/20 A3003 RMK A01 T02430201  RH  077%=      5-min Rain = 0
KSC1 261706Z 15010KT 25/20 A3003 RMK A01 T02460203  RH  077%=      5-min Rain = 0
KSC1 261707Z 16015G20KT 25/20 A3002 RMK A01 T02470202  RH  076%=      5-min Rain = 0
KSC1 261708Z 16015G21KT 25/20 A3002 RMK A01 T02480200  RH  075%=      5-min Rain = 0
KSC1 261709Z 16014G19KT 25/20 A3002 RMK A01 T02470200  RH  075%=      5-min Rain = 0
KSC1 261710Z 15013KT 25/20 A3002 RMK A01 T02460198  RH  075%=      5-min Rain = 0
KSC1 261711Z 15011KT 24/20 A3002 RMK A01 T02440198  RH  075%=      5-min Rain = 0
KSC1 261712Z 14015KT 24/20 A3002 RMK A01 T02440199  RH  076%=      5-min Rain = 0
KSC1 261713Z 14014KT 25/20 A3002 RMK A01 T02450199  RH  075%=      5-min Rain = 0
KSC1 261714Z 14011KT 25/20 A3002 RMK A01 T02460200  RH  075%=      5-min Rain = 0
KSC1 261715Z 15013KT 25/20 A3002 RMK A01 T02460199  RH  075%=      5-min Rain = 0
KSC1 261716Z 15011KT 25/20 A3002 RMK A01 T02470200  RH  075%=      5-min Rain = 0
KSC1 261717Z 13012KT 25/20 A3002 RMK A01 T02460200  RH  075%=      5-min Rain = 0
KSC1 261718Z 14011KT 25/20 A3002 RMK A01 T02460200  RH  075%=      5-min Rain = 0
KSC1 261719Z 13017G22KT 25/20 A3002 RMK A01 T02460200  RH  075%=      5-min Rain = 0
KSC1 261720Z 13012G18KT 25/20 A3002 RMK A01 T02460198  RH  075%=      5-min Rain = 0
KSC1 261721Z 13014G19KT 25/20 A3002 RMK A01 T02460198  RH  075%=      5-min Rain = 0
KSC1 261722Z 14012G18KT 25/20 A3002 RMK A01 T02450198  RH  075%=      5-min Rain = 0
KSC1 261723Z 14012G19KT 25/20 A3002 RMK A01 T02450199  RH  075%=      5-min Rain = 0
KSC1 261724Z 15013KT 25/20 A3002 RMK A01 T02450198  RH  075%=      5-min Rain = 0
KSC1 261725Z 14008KT 24/20 A3002 RMK A01 T02440201  RH  077%=      5-min Rain = 0
KSC1 261726Z 14011G16KT 25/20 A3002 RMK A01 T02450201  RH  077%=      5-min Rain = 0
KSC1 261727Z 13015G20KT 25/20 A3002 RMK A01 T02450200  RH  076%=      5-min Rain = 0
KSC1 261728Z 13016KT 25/20 A3002 RMK A01 T02450199  RH  076%=      5-min Rain = 0
KSC1 261729Z 14014G19KT 25/20 A3002 RMK A01 T02450197  RH  075%=      5-min Rain = 0
KSC1 261730Z 15015KT 25/20 A3002 RMK A01 T02450197  RH  075%=      5-min Rain = 0
KSC1 261731Z 15016KT 25/20 A3002 RMK A01 T02450198  RH  075%=      5-min Rain = 0
KSC1 261732Z 14011G17KT 25/20 A3002 RMK A01 T02460198  RH  075%=      5-min Rain = 0
KSC1 261733Z 14011KT 25/20 A3002 RMK A01 T02470200  RH  075%=      5-min Rain = 0
KSC1 261734Z 15013G20KT 25/20 A3002 RMK A01 T02490201  RH  075%=      5-min Rain = 0
KSC1 261735Z 14015KT 25/20 A3002 RMK A01 T02500199  RH  073%=      5-min Rain = 0
KSC1 261736Z 15016KT 25/20 A3002 RMK A01 T02500198  RH  073%=      5-min Rain = 0
KSC1 261737Z 15019KT 25/20 A3002 RMK A01 T02500198  RH  073%=      5-min Rain = 0
KSC1 261738Z 15020KT 25/20 A3002 RMK A01 T02500196  RH  072%=      5-min Rain = 0
KSC1 261739Z 15014KT 25/20 A3002 RMK A01 T02500197  RH  072%=      5-min Rain = 0
KSC1 261740Z 14015G20KT 25/20 A3002 RMK A01 T02500196  RH  072%=      5-min Rain = 0
KSC1 261741Z 15016KT 25/20 A3002 RMK A01 T02500197  RH  072%=      5-min Rain = 0
KSC1 261742Z 14017KT 25/20 A3002 RMK A01 T02510196  RH  071%=      5-min Rain = 0
KSC1 261743Z 14018KT 25/20 A3002 RMK A01 T02510195  RH  071%=      5-min Rain = 0
KSC1 261744Z 15013KT 25/20 A3002 RMK A01 T02520197  RH  072%=      5-min Rain = 0
KSC1 261745Z 15014G21KT 25/20 A3002 RMK A01 T02530198  RH  072%=      5-min Rain = 0
KSC1 261746Z 15015KT 25/20 A3002 RMK A01 T02530197  RH  071%=      5-min Rain = 0
KSC1 261747Z 15014KT 25/20 A3002 RMK A01 T02530197  RH  071%=      5-min Rain = 0
KSC1 261748Z 14015KT 25/20 A3002 RMK A01 T02530197  RH  071%=      5-min Rain = 0
KSC1 261749Z 15010KT 25/20 A3001 RMK A01 T02530198  RH  072%=      5-min Rain = 0
KSC1 261750Z 16014KT 26/20 A3001 RMK A01 T02550201  RH  072%=      5-min Rain = 0
KSC1 261751Z 15015G21KT 26/20 A3001 RMK A01 T02570199  RH  070%=      5-min Rain = 0
KSC1 261752Z 15017KT 26/20 A3001 RMK A01 T02570198  RH  070%=      5-min Rain = 0
KSC1 261753Z 15013G18KT 26/20 A3001 RMK A01 T02560199  RH  070%=      5-min Rain = 0
KSC1 261754Z 15015G20KT 26/20 A3001 RMK A01 T02570201  RH  071%=      5-min Rain = 0
KSC1 261755Z 15017G22KT 26/20 A3001 RMK A01 T02590199  RH  070%=      5-min Rain = 0
KSC1 261756Z 16020KT 26/20 A3001 RMK A01 T02590196  RH  068%=      5-min Rain = 0
KSC1 261757Z 15017G22KT 26/20 A3001 RMK A01 T02570195  RH  068%=      5-min Rain = 0
KSC1 261758Z 16013KT 26/20 A3001 RMK A01 T02560196  RH  069%=      5-min Rain = 0
KSC1 261759Z 15016G21KT 26/20 A3001 RMK A01 T02550196  RH  070%=      5-min Rain = 0
KSC1 261800Z 14015KT 25/20 A3001 RMK A01 T02540195  RH  070%=      5-min Rain = 0
KSC1 261801Z 15016KT 25/20 A3001 RMK A01 T02530195  RH  070%=      5-min Rain = 0
KSC1 261802Z 16014KT 25/20 A3001 RMK A01 T02520196  RH  071%=      5-min Rain = 0
KSC1 261803Z 15013G19KT 25/20 A3001 RMK A01 T02520196  RH  071%=      5-min Rain = 0
KSC1 261804Z 15012KT 25/20 A3001 RMK A01 T02520197  RH  071%=      5-min Rain = 0
KSC1 261805Z 15012G17KT 25/20 A3001 RMK A01 T02530197  RH  071%=      5-min Rain = 0
KSC1 261806Z 15013G18KT 25/20 A3001 RMK A01 T02530196  RH  070%=      5-min Rain = 0
KSC1 261807Z 15015KT 25/20 A3001 RMK A01 T02530195  RH  070%=      5-min Rain = 0
KSC1 261808Z 15013KT 25/20 A3001 RMK A01 T02540196  RH  070%=      5-min Rain = 0
KSC1 261809Z 16014KT 26/20 A3001 RMK A01 T02560198  RH  070%=      5-min Rain = 0
KSC1 261810Z 16011G17KT 26/20 A3001 RMK A01 T02580199  RH  070%=      5-min Rain = 0
KSC1 261811Z 15012G18KT 26/20 A3001 RMK A01 T02590199  RH  069%=      5-min Rain = 0
KSC1 261812Z 16014KT 26/20 A3001 RMK A01 T02600200  RH  069%=      5-min Rain = 0
KSC1 261813Z 16013G21KT 26/20 A3001 RMK A01 T02600197  RH  068%=      5-min Rain = 0
KSC1 261814Z 16012G17KT 26/20 A3001 RMK A01 T02600198  RH  069%=      5-min Rain = 0
KSC1 261815Z 16013G18KT 26/20 A3001 RMK A01 T02620201  RH  069%=      5-min Rain = 0
KSC1 261816Z 16014G20KT 26/20 A3001 RMK A01 T02630199  RH  068%=      5-min Rain = 0
KSC1 261817Z 15014KT 26/20 A3001 RMK A01 T02620198  RH  068%=      5-min Rain = 0
KSC1 261818Z 14010KT 26/20 A3001 RMK A01 T02610198  RH  068%=      5-min Rain = 0
KSC1 261819Z 14014KT 26/20 A3001 RMK A01 T02600198  RH  069%=      5-min Rain = 0
KSC1 261820Z 14013KT 26/20 A3001 RMK A01 T02600198  RH  069%=      5-min Rain = 0
KSC1 261821Z 15013G20KT 26/20 A3001 RMK A01 T02600198  RH  069%=      5-min Rain = 0
KSC1 261822Z 15016KT 26/20 A3001 RMK A01 T02600196  RH  068%=      5-min Rain = 0
KSC1 261823Z 14015KT 26/20 A3001 RMK A01 T02600196  RH  068%=      5-min Rain = 0
KSC1 261824Z 14010G15KT 26/20 A3001 RMK A01 T02610197  RH  068%=      5-min Rain = 0
KSC1 261825Z 15012KT 26/20 A3001 RMK A01 T02620202  RH  069%=      5-min Rain = 0
KSC1 261826Z 14012KT 26/20 A3001 RMK A01 T02640199  RH  068%=      5-min Rain = 0
KSC1 261827Z 14014KT 26/20 A3001 RMK A01 T02630198  RH  067%=      5-min Rain = 0
KSC1 261828Z 15010KT 26/20 A3001 RMK A01 T02620199  RH  068%=      5-min Rain = 0
KSC1 261829Z 16010G15KT 26/20 A3001 RMK A01 T02610201  RH  070%=      5-min Rain = 0
KSC1 261830Z 16012KT 26/20 A3001 RMK A01 T02630201  RH  068%=      5-min Rain = 0
KSC1 261831Z 16013KT 26/20 A3001 RMK A01 T02640200  RH  068%=      5-min Rain = 0
KSC1 261832Z 16011KT 26/20 A3001 RMK A01 T02640198  RH  067%=      5-min Rain = 0
KSC1 261833Z 16012KT 26/20 A30 RMK A01 T02640199  RH  068%=      5-min Rain = 0
KSC1 261834Z 16013KT 26/20 A30 RMK A01 T02630199  RH  068%=      5-min Rain = 0
KSC1 261835Z 16012KT 26/20 A30 RMK A01 T02630200  RH  068%=      5-min Rain = 0
KSC1 261836Z 15011G16KT 26/20 A30 RMK A01 T02640200  RH  068%=      5-min Rain = 0
KSC1 261837Z 16014KT 27/20 A30 RMK A01 T02650197  RH  066%=      5-min Rain = 0
KSC1 261838Z 16013KT 27/20 A30 RMK A01 T02650199  RH  067%=      5-min Rain = 0
KSC1 261839Z 15013G18KT 27/20 A30 RMK A01 T02680200  RH  066%=      5-min Rain = 0
KSC1 261840Z 16014G19KT 27/20 A30 RMK A01 T02700200  RH  066%=      5-min Rain = 0
KSC1 261841Z 15013KT 27/20 A30 RMK A01 T02710200  RH  065%=      5-min Rain = 0
KSC1 261842Z 15015KT 27/20 A30 RMK A01 T02710198  RH  064%=      5-min Rain = 0
KSC1 261843Z 16015KT 27/20 A30 RMK A01 T02690197  RH  065%=      5-min Rain = 0
KSC1 261844Z 16014KT 27/20 A30 RMK A01 T02690199  RH  066%=      5-min Rain = 0
KSC1 261845Z 16018KT 27/20 A30 RMK A01 T02700197  RH  064%=      5-min Rain = 0
KSC1 261846Z 15016G22KT 27/20 A30 RMK A01 T02710196  RH  064%=      5-min Rain = 0
KSC1 261847Z 14016G21KT 27/20 A30 RMK A01 T02710195  RH  063%=      5-min Rain = 0
KSC1 261848Z 15013G18KT 27/20 A30 RMK A01 T02700195  RH  064%=      5-min Rain = 0
KSC1 261849Z 15013KT 27/20 A30 RMK A01 T02690195  RH  064%=      5-min Rain = 0
KSC1 261850Z 14019KT 27/19 A30 RMK A01 T02690194  RH  064%=      5-min Rain = 0
KSC1 261851Z 15015G20KT 27/19 A30 RMK A01 T02690192  RH  063%=      5-min Rain = 0
KSC1 261852Z 14017G23KT 27/19 A30 RMK A01 T02700193  RH  063%=      5-min Rain = 0
KSC1 261853Z 14017G26KT 27/19 A30 RMK A01 T02720192  RH  062%=      5-min Rain = 0
KSC1 261854Z 15017KT 27/19 A30 RMK A01 T02740190  RH  060%=      5-min Rain = 0
KSC1 261855Z 15025G30KT 27/19 A30 RMK A01 T02740189  RH  060%=      5-min Rain = 0
KSC1 261856Z 16020G27KT 27/19 A30 RMK A01 T02730190  RH  061%=      5-min Rain = 0
KSC1 261857Z 16015KT 27/19 A30 RMK A01 T02720191  RH  061%=      5-min Rain = 0
KSC1 261858Z 16016G22KT 27/19 A30 RMK A01 T02720193  RH  062%=      5-min Rain = 0
KSC1 261859Z 16017KT 28/19 A30 RMK A01 T02760194  RH  061%=      5-min Rain = 0
KSC1 261900Z 15016G21KT 28/20 A30 RMK A01 T02780195  RH  061%=      5-min Rain = 0
KSC1 261901Z 14015G20KT 28/19 A30 RMK A01 T02800194  RH  059%=      5-min Rain = 0
KSC1 261902Z 14017G22KT 28/19 A30 RMK A01 T02810194  RH  059%=      5-min Rain = 0
KSC1 261903Z 15019KT 28/19 A30 RMK A01 T02810194  RH  059%=      5-min Rain = 0
KSC1 261904Z 15017KT 28/19 A2999 RMK A01 T02800191  RH  058%=      5-min Rain = 0
KSC1 261905Z 15016KT 28/19 A2999 RMK A01 T02790192  RH  059%=      5-min Rain = 0
KSC1 261906Z 15019G24KT 28/19 A2999 RMK A01 T02790192  RH  059%=      5-min Rain = 0
KSC1 261907Z 14015G21KT 28/19 A2999 RMK A01 T02780191  RH  059%=      5-min Rain = 0
KSC1 261908Z 14013G22KT 28/20 A2999 RMK A01 T02790197  RH  061%=      5-min Rain = 0
KSC1 261909Z 15016KT 28/19 A2999 RMK A01 T02800191  RH  058%=      5-min Rain = 0
KSC1 261910Z 15018KT 28/19 A2999 RMK A01 T02780191  RH  059%=      5-min Rain = 0
KSC1 261911Z 16016G22KT 28/19 A2999 RMK A01 T02770191  RH  059%=      5-min Rain = 0
KSC1 261912Z 15017KT 28/19 A2999 RMK A01 T02760193  RH  061%=      5-min Rain = 0
KSC1 261913Z 15014G19KT 27/19 A2999 RMK A01 T02740192  RH  061%=      5-min Rain = 0
KSC1 261914Z 14014G19KT 27/19 A2999 RMK A01 T02730193  RH  062%=      5-min Rain = 0
KSC1 261915Z 15015G21KT 27/19 A2999 RMK A01 T02730193  RH  062%=      5-min Rain = 0
KSC1 261916Z 15016G23KT 28/19 A2999 RMK A01 T02750194  RH  061%=      5-min Rain = 0
KSC1 261917Z 15016G21KT 28/19 A2999 RMK A01 T02750191  RH  060%=      5-min Rain = 0
KSC1 261918Z 15019G24KT 28/19 A2999 RMK A01 T02750191  RH  060%=      5-min Rain = 0
KSC1 261919Z 14019G24KT 27/19 A2999 RMK A01 T02730190  RH  060%=      5-min Rain = 0
KSC1 261920Z 15020KT 27/19 A2999 RMK A01 T02720189  RH  061%=      5-min Rain = 0
KSC1 261921Z 15014G19KT 27/19 A2999 RMK A01 T02720191  RH  061%=      5-min Rain = 0
KSC1 261922Z 14013G18KT 28/19 A30 RMK A01 T02750193  RH  061%=      5-min Rain = 0
KSC1 261923Z 15014G19KT 28/19 A30 RMK A01 T02780194  RH  060%=      5-min Rain = 0
KSC1 261924Z 16019G25KT 28/19 A2999 RMK A01 T02790192  RH  059%=      5-min Rain = 0
KSC1 261925Z 15018G23KT 28/19 A2999 RMK A01 T02790191  RH  059%=      5-min Rain = 0
KSC1 261926Z 14016KT 28/19 A2999 RMK A01 T02790191  RH  059%=      5-min Rain = 0
KSC1 261927Z 15016KT 28/19 A30 RMK A01 T02780192  RH  059%=      5-min Rain = 0
KSC1 261928Z 15019G24KT 28/19 A2999 RMK A01 T02780190  RH  059%=      5-min Rain = 0
KSC1 261929Z 16016G21KT 28/19 A30 RMK A01 T02760189  RH  059%=      5-min Rain = 0
KSC1 261930Z 15012G17KT 27/19 A30 RMK A01 T02740190  RH  060%=      5-min Rain = 0
KSC1 261931Z 16014G21KT 27/19 A30 RMK A01 T02740192  RH  061%=      5-min Rain = 0
KSC1 261932Z 16013KT 27/19 A30 RMK A01 T02740193  RH  061%=      5-min Rain = 0
KSC1 261933Z 15015G20KT 27/19 A30 RMK A01 T02740192  RH  061%=      5-min Rain = 0
KSC1 261934Z 15016G21KT 27/19 A30 RMK A01 T02720189  RH  060%=      5-min Rain = 0
KSC1 261935Z 15016G23KT 27/19 A30 RMK A01 T02720190  RH  061%=      5-min Rain = 0
KSC1 261936Z 15018G23KT 27/19 A2999 RMK A01 T02720188  RH  060%=      5-min Rain = 0
KSC1 261937Z 16017KT 27/19 A2999 RMK A01 T02710188  RH  061%=      5-min Rain = 0
KSC1 261938Z 16015G20KT 27/19 A2999 RMK A01 T02700188  RH  061%=      5-min Rain = 0
KSC1 261939Z 15017G25KT 27/19 A2999 RMK A01 T02700189  RH  061%=      5-min Rain = 0
KSC1 261940Z 16019G24KT 27/19 A2999 RMK A01 T02700187  RH  061%=      5-min Rain = 0
KSC1 261941Z 15014G21KT 27/19 A2999 RMK A01 T02700188  RH  061%=      5-min Rain = 0
KSC1 261942Z 16012G17KT 27/19 A2999 RMK A01 T02720190  RH  061%=      5-min Rain = 0
KSC1 261943Z 16015G20KT 28/19 A2999 RMK A01 T02750192  RH  060%=      5-min Rain = 0
KSC1 261944Z 16019KT 28/19 A2999 RMK A01 T02770189  RH  059%=      5-min Rain = 0
KSC1 261945Z 15017KT 28/19 A2999 RMK A01 T02780190  RH  059%=      5-min Rain = 0
KSC1 261946Z 15018G24KT 28/19 A2999 RMK A01 T02790191  RH  059%=      5-min Rain = 0
KSC1 261947Z 16017KT 28/19 A2999 RMK A01 T02800190  RH  058%=      5-min Rain = 0
KSC1 261948Z 16016G21KT 28/19 A2999 RMK A01 T02790191  RH  059%=      5-min Rain = 0
KSC1 261949Z 15017G22KT 28/19 A2999 RMK A01 T02780190  RH  059%=      5-min Rain = 0
KSC1 261950Z 15015KT 28/19 A2999 RMK A01 T02780191  RH  059%=      5-min Rain = 0
KSC1 261951Z 15016G24KT 28/19 A2999 RMK A01 T02790192  RH  059%=      5-min Rain = 0
KSC1 261952Z 15019KT 28/19 A2999 RMK A01 T02800190  RH  058%=      5-min Rain = 0
KSC1 261953Z 16016G21KT 28/19 A2999 RMK A01 T02800191  RH  058%=      5-min Rain = 0
KSC1 261954Z 15017KT 28/19 A2999 RMK A01 T02810191  RH  058%=      5-min Rain = 0
KSC1 261955Z 15018G23KT 28/19 A2999 RMK A01 T02810193  RH  059%=      5-min Rain = 0
KSC1 261956Z 14017KT 28/19 A2999 RMK A01 T02820192  RH  058%=      5-min Rain = 0
KSC1 261957Z 13018KT 28/19 A2999 RMK A01 T02820192  RH  058%=      5-min Rain = 0
KSC1 261958Z 13019KT 28/19 A2999 RMK A01 T02810190  RH  058%=      5-min Rain = 0
KSC1 261959Z 14017G25KT 28/19 A2999 RMK A01 T02790191  RH  059%=      5-min Rain = 0
KSC1 262000Z 14017G22KT 28/19 A2999 RMK A01 T02790189  RH  058%=      5-min Rain = 0
KSC1 262001Z 15015G21KT 28/19 A2999 RMK A01 T02800192  RH  059%=      5-min Rain = 0
KSC1 262002Z 15014G19KT 28/19 A2999 RMK A01 T02820194  RH  059%=      5-min Rain = 0
KSC1 262003Z 16018KT 28/19 A2999 RMK A01 T02840193  RH  058%=      5-min Rain = 0
KSC1 262004Z 16017G22KT 28/19 A2999 RMK A01 T02840192  RH  057%=      5-min Rain = 0
KSC1 262005Z 14016KT 28/19 A2999 RMK A01 T02830194  RH  058%=      5-min Rain = 0
KSC1 262006Z 15012G18KT 28/19 A2999 RMK A01 T02830194  RH  059%=      5-min Rain = 0
KSC1 262007Z 15017G23KT 28/19 A30 RMK A01 T02840194  RH  058%=      5-min Rain = 0
KSC1 262008Z 16014G21KT 28/19 A30 RMK A01 T02830191  RH  057%=      5-min Rain = 0
KSC1 262009Z 17015G22KT 28/19 A30 RMK A01 T02810193  RH  059%=      5-min Rain = 0
KSC1 262010Z 16016KT 28/19 A30 RMK A01 T02800191  RH  058%=      5-min Rain = 0
KSC1 262011Z 17015KT 28/19 A30 RMK A01 T02780190  RH  059%=      5-min Rain = 0
KSC1 262012Z 16016KT 28/19 A30 RMK A01 T02770190  RH  059%=      5-min Rain = 0
KSC1 262013Z 16013G19KT 28/19 A30 RMK A01 T02760191  RH  060%=      5-min Rain = 0
KSC1 262014Z 15015KT 28/19 A30 RMK A01 T02770191  RH  060%=      5-min Rain = 0
KSC1 262015Z 16015KT 28/19 A30 RMK A01 T02770189  RH  059%=      5-min Rain = 0
KSC1 262016Z 15011G17KT 28/19 A30 RMK A01 T02780191  RH  059%=      5-min Rain = 0
KSC1 262017Z 15017G22KT 28/19 A30 RMK A01 T02800191  RH  058%=      5-min Rain = 0
KSC1 262018Z 15013G18KT 28/19 A30 RMK A01 T02820190  RH  057%=      5-min Rain = 0
KSC1 262019Z 15015KT 28/19 A30 RMK A01 T02820190  RH  057%=      5-min Rain = 0
KSC1 262020Z 16015G20KT 28/19 A30 RMK A01 T02830191  RH  058%=      5-min Rain = 0
KSC1 262021Z 16014G20KT 28/19 A30 RMK A01 T02830192  RH  058%=      5-min Rain = 0
KSC1 262022Z 16017G25KT 28/19 A2999 RMK A01 T02840189  RH  057%=      5-min Rain = 0
KSC1 262023Z 16015G22KT 28/19 A30 RMK A01 T02820187  RH  056%=      5-min Rain = 0
KSC1 262024Z 16015G22KT 28/19 A30 RMK A01 T02810188  RH  057%=      5-min Rain = 0
KSC1 262025Z 16018KT 28/19 A30 RMK A01 T02810188  RH  057%=      5-min Rain = 0
KSC1 262026Z 16018KT 28/19 A30 RMK A01 T02800187  RH  057%=      5-min Rain = 0
KSC1 262027Z 16015G20KT 28/19 A30 RMK A01 T02790187  RH  057%=      5-min Rain = 0
KSC1 262028Z 17016KT 28/19 A2999 RMK A01 T02790187  RH  057%=      5-min Rain = 0
KSC1 262029Z 16015KT 28/19 A2999 RMK A01 T02790187  RH  057%=      5-min Rain = 0
KSC1 262030Z 15011KT 28/19 A2999 RMK A01 T02810192  RH  058%=      5-min Rain = 0
KSC1 262031Z 14016G22KT 29/19 A2999 RMK A01 T02850189  RH  056%=      5-min Rain = 0
KSC1 262032Z 15019G24KT 28/18 A2999 RMK A01 T02840184  RH  055%=      5-min Rain = 0
KSC1 262033Z 14015G20KT 28/18 A2999 RMK A01 T02830184  RH  055%=      5-min Rain = 0
KSC1 262034Z 15017KT 28/18 A2999 RMK A01 T02830183  RH  055%=      5-min Rain = 0
KSC1 262035Z 15013G18KT 28/18 A2999 RMK A01 T02830182  RH  054%=      5-min Rain = 0
KSC1 262036Z 16018G28KT 28/18 A2999 RMK A01 T02830183  RH  055%=      5-min Rain = 0
KSC1 262037Z 15015KT 28/18 A2999 RMK A01 T02820182  RH  055%=      5-min Rain = 0
KSC1 262038Z 15015KT 28/18 A2999 RMK A01 T02820184  RH  055%=      5-min Rain = 0
KSC1 262039Z 15020G25KT 28/18 A2999 RMK A01 T02840183  RH  054%=      5-min Rain = 0
KSC1 262040Z 15017G22KT 28/18 A2999 RMK A01 T02830183  RH  054%=      5-min Rain = 0
KSC1 262041Z 15016KT 28/18 A2999 RMK A01 T02830183  RH  055%=      5-min Rain = 0
KSC1 262042Z 14013KT 28/18 A2999 RMK A01 T02830183  RH  055%=      5-min Rain = 0
KSC1 262043Z 16012KT 28/19 A2999 RMK A01 T02830186  RH  055%=      5-min Rain = 0
KSC1 262044Z 15014G21KT 29/19 A2999 RMK A01 T02850188  RH  056%=      5-min Rain = 0
KSC1 262045Z 14018G23KT 29/19 A2999 RMK A01 T02860185  RH  054%=      5-min Rain = 0
KSC1 262046Z 14015KT 29/19 A2999 RMK A01 T02860185  RH  054%=      5-min Rain = 0
KSC1 262047Z 16013KT 29/19 A2999 RMK A01 T02870187  RH  055%=      5-min Rain = 0
KSC1 262048Z 14014KT 29/19 A2999 RMK A01 T02890189  RH  055%=      5-min Rain = 0
KSC1 262049Z 15017KT 29/19 A2999 RMK A01 T02900186  RH  053%=      5-min Rain = 0
KSC1 262050Z 15015G21KT 29/18 A2999 RMK A01 T02890184  RH  053%=      5-min Rain = 0
KSC1 262051Z 14016G21KT 29/18 A2999 RMK A01 T02870184  RH  054%=      5-min Rain = 0
KSC1 262052Z 14013G18KT 28/18 A2999 RMK A01 T02840183  RH  054%=      5-min Rain = 0
KSC1 262053Z 14018G26KT 28/19 A2999 RMK A01 T02840185  RH  055%=      5-min Rain = 0
KSC1 262054Z 14019KT 28/18 A2999 RMK A01 T02840184  RH  055%=      5-min Rain = 0
KSC1 262055Z 15015G20KT 28/18 A2999 RMK A01 T02840183  RH  054%=      5-min Rain = 0
KSC1 262056Z 15015KT 28/18 A2999 RMK A01 T02830183  RH  055%=      5-min Rain = 0
KSC1 262057Z 15016G21KT 28/18 A2999 RMK A01 T02830184  RH  055%=      5-min Rain = 0
KSC1 262058Z 15016G24KT 28/18 A2999 RMK A01 T02820184  RH  055%=      5-min Rain = 0
KSC1 262059Z 14016KT 28/18 A2999 RMK A01 T02830183  RH  055%=      5-min Rain = 0
KSC1 262100Z 15015KT 28/18 A2999 RMK A01 T02820182  RH  055%=      5-min Rain = 0
KSC1 262101Z 14016KT 28/18 A2999 RMK A01 T02830180  RH  054%=      5-min Rain = 0
KSC1 262102Z 15013KT 28/18 A2999 RMK A01 T02830182  RH  054%=      5-min Rain = 0
KSC1 262103Z 14015KT 28/18 A2999 RMK A01 T02840184  RH  055%=      5-min Rain = 0
KSC1 262104Z 15011KT 28/19 A2999 RMK A01 T02840185  RH  055%=      5-min Rain = 0
KSC1 262105Z 15013G18KT 29/19 A2999 RMK A01 T02850187  RH  055%=      5-min Rain = 0
KSC1 262106Z 15014KT 29/19 A2999 RMK A01 T02850185  RH  055%=      5-min Rain = 0
KSC1 262107Z 16015KT 29/19 A2999 RMK A01 T02850185  RH  055%=      5-min Rain = 0
KSC1 262108Z 16014G19KT 29/19 A2999 RMK A01 T02850185  RH  055%=      5-min Rain = 0
KSC1 262109Z 17015KT 28/18 A2999 RMK A01 T02840183  RH  054%=      5-min Rain = 0
KSC1 262110Z 16016KT 28/18 A2999 RMK A01 T02830183  RH  055%=      5-min Rain = 0
KSC1 262111Z 15017G22KT 28/18 A2999 RMK A01 T02810182  RH  055%=      5-min Rain = 0
KSC1 262112Z 16015KT 28/18 A2999 RMK A01 T02810183  RH  055%=      5-min Rain = 0
KSC1 262113Z 15013KT 28/19 A2999 RMK A01 T02810185  RH  056%=      5-min Rain = 0
KSC1 262114Z 15013KT 28/18 A2999 RMK A01 T02800184  RH  056%=      5-min Rain = 0
KSC1 262115Z 16015KT 28/18 A2999 RMK A01 T02790184  RH  056%=      5-min Rain = 0
KSC1 262116Z 16013KT 28/18 A2999 RMK A01 T02780184  RH  056%=      5-min Rain = 0
KSC1 262117Z 15013G18KT 28/18 A2998 RMK A01 T02790184  RH  057%=      5-min Rain = 0
KSC1 262118Z 14015KT 28/18 A2998 RMK A01 T02790184  RH  056%=      5-min Rain = 0
KSC1 262119Z 14014KT 28/18 A2998 RMK A01 T02800184  RH  056%=      5-min Rain = 0
KSC1 262120Z 14012KT 28/19 A2999 RMK A01 T02810186  RH  056%=      5-min Rain = 0
KSC1 262121Z 15014KT 28/18 A2999 RMK A01 T02810184  RH  056%=      5-min Rain = 0
KSC1 262122Z 16016KT 28/18 A2998 RMK A01 T02810182  RH  055%=      5-min Rain = 0
KSC1 262123Z 14013KT 28/18 A2999 RMK A01 T02800182  RH  055%=      5-min Rain = 0
KSC1 262124Z 16014G19KT 28/18 A2998 RMK A01 T02790183  RH  056%=      5-min Rain = 0
KSC1 262125Z 15014G20KT 28/18 A2998 RMK A01 T02780182  RH  056%=      5-min Rain = 0
KSC1 262126Z 15013KT 28/18 A2998 RMK A01 T02780182  RH  056%=      5-min Rain = 0
KSC1 262127Z 15015KT 28/18 A2999 RMK A01 T02790180  RH  055%=      5-min Rain = 0
KSC1 262128Z 15014KT 28/18 A2999 RMK A01 T02790179  RH  054%=      5-min Rain = 0
KSC1 262129Z 15015G20KT 28/18 A2999 RMK A01 T02800178  RH  054%=      5-min Rain = 0
KSC1 262130Z 16013G19KT 28/18 A2999 RMK A01 T02800178  RH  054%=      5-min Rain = 0
KSC1 262131Z 16015G21KT 28/18 A2999 RMK A01 T02800179  RH  054%=      5-min Rain = 0
KSC1 262132Z 16013G19KT 28/18 A2998 RMK A01 T02800179  RH  054%=      5-min Rain = 0
KSC1 262133Z 16016KT 28/18 A2998 RMK A01 T02800180  RH  055%=      5-min Rain = 0
KSC1 262134Z 15013KT 28/18 A2998 RMK A01 T02800179  RH  054%=      5-min Rain = 0
KSC1 262135Z 16014G20KT 28/18 A2998 RMK A01 T02790180  RH  055%=      5-min Rain = 0
KSC1 262136Z 16014G21KT 28/18 A2998 RMK A01 T02790179  RH  054%=      5-min Rain = 0
KSC1 262137Z 15014KT 28/18 A2998 RMK A01 T02790179  RH  055%=      5-min Rain = 0
KSC1 262138Z 16014KT 28/18 A2998 RMK A01 T02790180  RH  055%=      5-min Rain = 0
KSC1 262139Z 16016KT 28/18 A2998 RMK A01 T02790179  RH  055%=      5-min Rain = 0
KSC1 262140Z 15013G18KT 28/18 A2998 RMK A01 T02780180  RH  055%=      5-min Rain = 0
KSC1 262141Z 16014KT 28/18 A2999 RMK A01 T02780181  RH  055%=      5-min Rain = 0
KSC1 262142Z 15014KT 28/18 A2999 RMK A01 T02780180  RH  055%=      5-min Rain = 0
KSC1 262143Z 15013KT 28/18 A2998 RMK A01 T02770179  RH  055%=      5-min Rain = 0
KSC1 262144Z 15014KT 28/18 A2999 RMK A01 T02760180  RH  056%=      5-min Rain = 0
KSC1 262145Z 15014KT 28/18 A2998 RMK A01 T02760180  RH  056%=      5-min Rain = 0
KSC1 262146Z 16016KT 28/18 A2998 RMK A01 T02760179  RH  056%=      5-min Rain = 0
KSC1 262147Z 16015KT 28/18 A2998 RMK A01 T02760180  RH  056%=      5-min Rain = 0
KSC1 262148Z 15011KT 28/18 A2998 RMK A01 T02750181  RH  056%=      5-min Rain = 0
KSC1 262149Z 16013G18KT 28/18 A2998 RMK A01 T02750181  RH  057%=      5-min Rain = 0
KSC1 262150Z 16014KT 27/18 A2998 RMK A01 T02740179  RH  056%=      5-min Rain = 0
KSC1 262151Z 16012KT 27/18 A2998 RMK A01 T02740179  RH  056%=      5-min Rain = 0
KSC1 262152Z 16012G18KT 27/18 A2998 RMK A01 T02740179  RH  056%=      5-min Rain = 0
KSC1 262153Z 15014G20KT 27/18 A2998 RMK A01 T02740179  RH  056%=      5-min Rain = 0
KSC1 262154Z 15012G17KT 27/18 A2998 RMK A01 T02740179  RH  056%=      5-min Rain = 0
KSC1 262155Z 14014KT 27/18 A2998 RMK A01 T02740179  RH  056%=      5-min Rain = 0
KSC1 262156Z 14014KT 27/18 A2998 RMK A01 T02740179  RH  056%=      5-min Rain = 0
KSC1 262157Z 15013KT 27/18 A2998 RMK A01 T02740179  RH  056%=      5-min Rain = 0
KSC1 262158Z 15012KT 28/18 A2997 RMK A01 T02750179  RH  056%=      5-min Rain = 0
KSC1 262159Z 15010KT 28/18 A2997 RMK A01 T02750180  RH  056%=      5-min Rain = 0
KSC1 262200Z 14009KT 28/18 A2997 RMK A01 T02750181  RH  057%=      5-min Rain = 0
KSC1 262201Z 14015KT 28/18 A2997 RMK A01 T02750182  RH  057%=      5-min Rain = 0
KSC1 262202Z 15015G20KT 28/18 A2997 RMK A01 T02750180  RH  056%=      5-min Rain = 0
KSC1 262203Z 14010G15KT 28/18 A2997 RMK A01 T02750181  RH  057%=      5-min Rain = 0
KSC1 262204Z 15013KT 28/18 A2997 RMK A01 T02750181  RH  056%=      5-min Rain = 0
KSC1 262205Z 14015KT 28/18 A2996 RMK A01 T02750180  RH  056%=      5-min Rain = 0
KSC1 262206Z 14013KT 28/18 A2996 RMK A01 T02760180  RH  056%=      5-min Rain = 0
KSC1 262207Z 15012KT 28/18 A2996 RMK A01 T02750181  RH  056%=      5-min Rain = 0
KSC1 262208Z 14012G17KT 28/18 A2996 RMK A01 T02760182  RH  057%=      5-min Rain = 0
KSC1 262209Z 15014KT 28/18 A2996 RMK A01 T02760181  RH  056%=      5-min Rain = 0
KSC1 262210Z 15014KT 28/18 A2996 RMK A01 T02760181  RH  056%=      5-min Rain = 0
KSC1 262211Z 14010G16KT 28/18 A2996 RMK A01 T02770181  RH  056%=      5-min Rain = 0
KSC1 262212Z 14009KT 28/18 A2996 RMK A01 T02770183  RH  056%=      5-min Rain = 0
KSC1 262213Z 14010KT 28/18 A2996 RMK A01 T02770183  RH  056%=      5-min Rain = 0
KSC1 262214Z 15010G15KT 28/18 A2996 RMK A01 T02770183  RH  056%=      5-min Rain = 0
KSC1 262215Z 15011KT 28/18 A2996 RMK A01 T02780182  RH  056%=      5-min Rain = 0
KSC1 262216Z 15013KT 28/18 A2996 RMK A01 T02780181  RH  056%=      5-min Rain = 0
KSC1 262217Z 15014KT 28/18 A2996 RMK A01 T02780182  RH  056%=      5-min Rain = 0
KSC1 262218Z 15012KT 28/18 A2996 RMK A01 T02780181  RH  056%=      5-min Rain = 0
KSC1 262219Z 15009G14KT 28/18 A2996 RMK A01 T02780184  RH  057%=      5-min Rain = 0
KSC1 262220Z 15011KT 28/19 A2996 RMK A01 T02780185  RH  057%=      5-min Rain = 0
KSC1 262221Z 15013KT 28/19 A2996 RMK A01 T02780185  RH  057%=      5-min Rain = 0
KSC1 262222Z 15011G16KT 28/18 A2996 RMK A01 T02780183  RH  056%=      5-min Rain = 0
KSC1 262223Z 14009KT 28/18 A2996 RMK A01 T02780184  RH  057%=      5-min Rain = 0
KSC1 262224Z 14011KT 28/19 A2995 RMK A01 T02780185  RH  057%=      5-min Rain = 0
KSC1 262225Z 14011G16KT 28/19 A2995 RMK A01 T02780186  RH  057%=      5-min Rain = 0
KSC1 262226Z 15011KT 28/18 A2995 RMK A01 T02780184  RH  056%=      5-min Rain = 0
KSC1 262227Z 15011KT 28/18 A2995 RMK A01 T02780184  RH  056%=      5-min Rain = 0
KSC1 262228Z 15010G16KT 28/19 A2995 RMK A01 T02790185  RH  057%=      5-min Rain = 0
KSC1 262229Z 15012KT 28/19 A2995 RMK A01 T02790185  RH  057%=      5-min Rain = 0
KSC1 262230Z 14009KT 28/19 A2995 RMK A01 T02790186  RH  057%=      5-min Rain = 0
KSC1 262231Z 14011KT 28/19 A2995 RMK A01 T02790186  RH  057%=      5-min Rain = 0
KSC1 262232Z 14013KT 28/19 A2995 RMK A01 T02790185  RH  057%=      5-min Rain = 0
KSC1 262233Z 14011G16KT 28/19 A2995 RMK A01 T02790185  RH  057%=      5-min Rain = 0
KSC1 262234Z 14012KT 28/19 A2995 RMK A01 T02790186  RH  057%=      5-min Rain = 0
KSC1 262235Z 13011KT 28/19 A2995 RMK A01 T02790186  RH  057%=      5-min Rain = 0
KSC1 262236Z 14012G17KT 28/19 A2995 RMK A01 T02780186  RH  057%=      5-min Rain = 0
KSC1 262237Z 14011KT 28/19 A2995 RMK A01 T02780186  RH  057%=      5-min Rain = 0
KSC1 262238Z 14010KT 28/19 A2994 RMK A01 T02780185  RH  057%=      5-min Rain = 0
KSC1 262239Z 14010G16KT 28/19 A2994 RMK A01 T02780187  RH  058%=      5-min Rain = 0
KSC1 262240Z 14012G19KT 28/19 A2994 RMK A01 T02770186  RH  057%=      5-min Rain = 0
KSC1 262241Z 14012KT 28/19 A2994 RMK A01 T02770186  RH  058%=      5-min Rain = 0
KSC1 262242Z 13010KT 28/19 A2994 RMK A01 T02770188  RH  058%=      5-min Rain = 0
KSC1 262243Z 14013KT 28/19 A2994 RMK A01 T02760187  RH  058%=      5-min Rain = 0
KSC1 262244Z 13012KT 28/18 A2994 RMK A01 T02760184  RH  057%=      5-min Rain = 0
KSC1 262245Z 13010KT 28/19 A2994 RMK A01 T02760186  RH  058%=      5-min Rain = 0
KSC1 262246Z 13010KT 28/19 A2994 RMK A01 T02750187  RH  058%=      5-min Rain = 0
KSC1 262247Z 14011KT 28/19 A2994 RMK A01 T02750187  RH  058%=      5-min Rain = 0
KSC1 262248Z 14011KT 28/18 A2994 RMK A01 T02750184  RH  058%=      5-min Rain = 0
KSC1 262249Z 13009G14KT 28/19 A2993 RMK A01 T02750185  RH  058%=      5-min Rain = 0
KSC1 262250Z 13010KT 28/19 A2993 RMK A01 T02750186  RH  058%=      5-min Rain = 0
KSC1 262251Z 14009KT 27/19 A2993 RMK A01 T02740187  RH  059%=      5-min Rain = 0
KSC1 262252Z 13011G16KT 27/19 A2993 RMK A01 T02740186  RH  059%=      5-min Rain = 0
KSC1 262253Z 14012G17KT 27/18 A2993 RMK A01 T02740184  RH  058%=      5-min Rain = 0
KSC1 262254Z 12010G16KT 27/19 A2993 RMK A01 T02740185  RH  058%=      5-min Rain = 0
KSC1 262255Z 13015KT 27/19 A2993 RMK A01 T02740185  RH  058%=      5-min Rain = 0
KSC1 262256Z 13013KT 27/18 A2993 RMK A01 T02740183  RH  058%=      5-min Rain = 0
KSC1 262257Z 13011KT 27/18 A2993 RMK A01 T02740184  RH  058%=      5-min Rain = 0
KSC1 262258Z 13012KT 28/18 A2993 RMK A01 T02750184  RH  058%=      5-min Rain = 0
KSC1 262259Z 13013KT 28/18 A2993 RMK A01 T02750184  RH  058%=      5-min Rain = 0
KSC1 262300Z 13011KT 28/19 A2993 RMK A01 T02750185  RH  058%=      5-min Rain = 0
KSC1 262301Z 13010KT 28/19 A2993 RMK A01 T02750185  RH  058%=      5-min Rain = 0
KSC1 262302Z 14011KT 28/19 A2993 RMK A01 T02750185  RH  058%=      5-min Rain = 0
KSC1 262303Z 13010KT 28/19 A2993 RMK A01 T02750185  RH  058%=      5-min Rain = 0
KSC1 262304Z 13009KT 28/19 A2993 RMK A01 T02750185  RH  058%=      5-min Rain = 0
KSC1 262305Z 14010KT 28/19 A2993 RMK A01 T02750186  RH  058%=      5-min Rain = 0
KSC1 262306Z 13011KT 28/19 A2993 RMK A01 T02750185  RH  058%=      5-min Rain = 0
KSC1 262307Z 14012KT 28/19 A2993 RMK A01 T02750185  RH  058%=      5-min Rain = 0
KSC1 262308Z 13011KT 28/19 A2993 RMK A01 T02760185  RH  058%=      5-min Rain = 0
KSC1 262309Z 13011G16KT 28/19 A2993 RMK A01 T02750185  RH  058%=      5-min Rain = 0
KSC1 262310Z 12011KT 28/19 A2992 RMK A01 T02760186  RH  058%=      5-min Rain = 0
KSC1 262311Z 12010KT 28/19 A2992 RMK A01 T02750186  RH  058%=      5-min Rain = 0
KSC1 262312Z 12010KT 28/19 A2992 RMK A01 T02760187  RH  059%=      5-min Rain = 0
KSC1 262313Z 12010KT 28/19 A2992 RMK A01 T02750187  RH  059%=      5-min Rain = 0
KSC1 262314Z 12011KT 28/19 A2991 RMK A01 T02750187  RH  058%=      5-min Rain = 0
KSC1 262315Z 13010KT 28/19 A2991 RMK A01 T02760187  RH  058%=      5-min Rain = 0
KSC1 262316Z 12011KT 28/19 A2991 RMK A01 T02750188  RH  059%=      5-min Rain = 0
KSC1 262317Z 11011KT 28/19 A2991 RMK A01 T02750188  RH  059%=      5-min Rain = 0
KSC1 262318Z 12011KT 28/19 A2991 RMK A01 T02750188  RH  059%=      5-min Rain = 0
KSC1 262319Z 13010KT 28/19 A2991 RMK A01 T02750189  RH  059%=      5-min Rain = 0
KSC1 262320Z 13010G15KT 28/19 A2992 RMK A01 T02750188  RH  059%=      5-min Rain = 0
KSC1 262321Z 13011G16KT 28/19 A2991 RMK A01 T02750189  RH  059%=      5-min Rain = 0
KSC1 262322Z 13011KT 28/19 A2991 RMK A01 T02750188  RH  059%=      5-min Rain = 0
KSC1 262323Z 13010KT 28/19 A2991 RMK A01 T02750188  RH  059%=      5-min Rain = 0
KSC1 262324Z 12013G19KT 28/19 A2991 RMK A01 T02750188  RH  059%=      5-min Rain = 0
KSC1 262325Z 13015KT 28/19 A2991 RMK A01 T02750187  RH  058%=      5-min Rain = 0
KSC1 262326Z 13015KT 28/19 A2991 RMK A01 T02750185  RH  058%=      5-min Rain = 0
KSC1 262327Z 13011KT 28/19 A2991 RMK A01 T02750186  RH  058%=      5-min Rain = 0
KSC1 262328Z 13012KT 28/19 A2991 RMK A01 T02750187  RH  059%=      5-min Rain = 0
KSC1 262329Z 13013KT 28/19 A2991 RMK A01 T02750187  RH  059%=      5-min Rain = 0
KSC1 262330Z 13013KT 28/19 A2991 RMK A01 T02750186  RH  059%=      5-min Rain = 0
KSC1 262331Z 12012KT 28/19 A2991 RMK A01 T02750186  RH  059%=      5-min Rain = 0
KSC1 262332Z 12012KT 28/19 A2991 RMK A01 T02750187  RH  059%=      5-min Rain = 0
KSC1 262333Z 12013KT 27/19 A2991 RMK A01 T02740186  RH  059%=      5-min Rain = 0
KSC1 262334Z 12013KT 27/19 A2991 RMK A01 T02740187  RH  059%=      5-min Rain = 0
KSC1 262335Z 13011KT 27/19 A2991 RMK A01 T02740187  RH  059%=      5-min Rain = 0
KSC1 262336Z 12010KT 27/19 A2991 RMK A01 T02740188  RH  059%=      5-min Rain = 0
KSC1 262337Z 12011KT 27/19 A2991 RMK A01 T02730189  RH  060%=      5-min Rain = 0
KSC1 262338Z 13011KT 27/19 A2991 RMK A01 T02730188  RH  060%=      5-min Rain = 0
KSC1 262339Z 13010KT 27/19 A2991 RMK A01 T02720188  RH  060%=      5-min Rain = 0
KSC1 262340Z 13009KT 27/19 A2991 RMK A01 T02720188  RH  060%=      5-min Rain = 0
KSC1 262341Z 12011KT 27/19 A299 RMK A01 T02720189  RH  060%=      5-min Rain = 0
KSC1 262342Z 12013KT 27/19 A299 RMK A01 T02720187  RH  060%=      5-min Rain = 0
KSC1 262343Z 13012KT 27/19 A299 RMK A01 T02720187  RH  060%=      5-min Rain = 0
KSC1 262344Z 13013KT 27/19 A2991 RMK A01 T02720187  RH  060%=      5-min Rain = 0
KSC1 262345Z 13011KT 27/19 A2991 RMK A01 T02720187  RH  060%=      5-min Rain = 0
KSC1 262346Z 13013KT 27/19 A2991 RMK A01 T02720188  RH  060%=      5-min Rain = 0
KSC1 262347Z 13012KT 27/19 A2991 RMK A01 T02720187  RH  060%=      5-min Rain = 0
KSC1 262348Z 13012KT 27/19 A2991 RMK A01 T02720188  RH  060%=      5-min Rain = 0
KSC1 262349Z 13011KT 27/19 A2991 RMK A01 T02710187  RH  060%=      5-min Rain = 0
KSC1 262350Z 14012KT 27/19 A2991 RMK A01 T02710188  RH  060%=      5-min Rain = 0
KSC1 262351Z 13010KT 27/19 A2991 RMK A01 T02710188  RH  061%=      5-min Rain = 0
KSC1 262352Z 13009KT 27/19 A2991 RMK A01 T02710189  RH  061%=      5-min Rain = 0
KSC1 262353Z 13009KT 27/19 A2991 RMK A01 T02710189  RH  061%=      5-min Rain = 0
KSC1 262354Z 13009KT 27/19 A2991 RMK A01 T02700189  RH  061%=      5-min Rain = 0
KSC1 262355Z 13009KT 27/19 A2991 RMK A01 T02700190  RH  062%=      5-min Rain = 0
KSC1 262356Z 13011G16KT 27/19 A2991 RMK A01 T02690189  RH  062%=      5-min Rain = 0
KSC1 262357Z 13012KT 27/19 A2991 RMK A01 T02690188  RH  061%=      5-min Rain = 0
KSC1 262358Z 13011KT 27/19 A2991 RMK A01 T02690188  RH  061%=      5-min Rain = 0
KSC1 262359Z 13013KT 27/19 A2991 RMK A01 T02690187  RH  061%=      5-min Rain = 0
KSC1 270000Z 13009KT 27/19 A299 RMK A01 T02690188  RH  061%=      5-min Rain = 0
KSC1 270001Z 13011G17KT 27/19 A299 RMK A01 T02690189  RH  061%=      5-min Rain = 0
KSC1 270002Z 13013KT 27/19 A299 RMK A01 T02690188  RH  061%=      5-min Rain = 0
KSC1 270003Z 12013KT 27/19 A299 RMK A01 T02690188  RH  061%=      5-min Rain = 0
KSC1 270004Z 13012KT 27/19 A299 RMK A01 T02690188  RH  061%=      5-min Rain = 0
KSC1 270005Z 13012KT 27/19 A299 RMK A01 T02690188  RH  061%=      5-min Rain = 0
KSC1 270006Z 13009KT 27/19 A299 RMK A01 T02690188  RH  061%=      5-min Rain = 0
KSC1 270007Z 13010KT 27/19 A299 RMK A01 T02690189  RH  062%=      5-min Rain = 0
KSC1 270008Z 13015G20KT 27/19 A299 RMK A01 T02680188  RH  061%=      5-min Rain = 0
KSC1 270009Z 13012KT 27/19 A299 RMK A01 T02680187  RH  061%=      5-min Rain = 0
KSC1 270010Z 13014KT 27/19 A299 RMK A01 T02690187  RH  061%=      5-min Rain = 0
KSC1 270011Z 13011G16KT 27/19 A299 RMK A01 T02690187  RH  061%=      5-min Rain = 0
KSC1 270012Z 13011KT 27/19 A299 RMK A01 T02680187  RH  061%=      5-min Rain = 0
KSC1 270013Z 13010G16KT 27/19 A299 RMK A01 T02680188  RH  062%=      5-min Rain = 0
KSC1 270014Z 13012G17KT 27/19 A299 RMK A01 T02680188  RH  061%=      5-min Rain = 0
KSC1 270015Z 13009KT 27/19 A299 RMK A01 T02680188  RH  062%=      5-min Rain = 0
KSC1 270016Z 13011KT 27/19 A299 RMK A01 T02680188  RH  062%=      5-min Rain = 0
KSC1 270017Z 14011KT 27/19 A299 RMK A01 T02680188  RH  062%=      5-min Rain = 0
KSC1 270018Z 13013KT 27/19 A299 RMK A01 T02670187  RH  062%=      5-min Rain = 0
KSC1 270019Z 13014KT 27/19 A299 RMK A01 T02670187  RH  061%=      5-min Rain = 0
KSC1 270020Z 13011G16KT 27/19 A299 RMK A01 T02680187  RH  061%=      5-min Rain = 0
KSC1 270021Z 13015KT 27/19 A299 RMK A01 T02680187  RH  061%=      5-min Rain = 0
KSC1 270022Z 13013KT 27/19 A299 RMK A01 T02680187  RH  061%=      5-min Rain = 0
KSC1 270023Z 13012KT 27/19 A299 RMK A01 T02680186  RH  061%=      5-min Rain = 0
KSC1 270024Z 13011KT 27/19 A299 RMK A01 T02680187  RH  061%=      5-min Rain = 0
KSC1 270025Z 13015KT 27/19 A299 RMK A01 T02680187  RH  061%=      5-min Rain = 0
KSC1 270026Z 12013G19KT 27/19 A2989 RMK A01 T02680186  RH  061%=      5-min Rain = 0
KSC1 270027Z 13011KT 27/19 A2989 RMK A01 T02680187  RH  061%=      5-min Rain = 0
KSC1 270028Z 13011G17KT 27/19 A2989 RMK A01 T02680187  RH  061%=      5-min Rain = 0
KSC1 270029Z 12012KT 27/19 A2989 RMK A01 T02670187  RH  061%=      5-min Rain = 0
KSC1 270030Z 13012KT 27/19 A2989 RMK A01 T02670187  RH  062%=      5-min Rain = 0
KSC1 270031Z 12013KT 27/19 A2989 RMK A01 T02660187  RH  062%=      5-min Rain = 0
KSC1 270032Z 13012KT 27/19 A2989 RMK A01 T02660187  RH  062%=      5-min Rain = 0
KSC1 270033Z 12013G18KT 27/19 A2989 RMK A01 T02660186  RH  062%=      5-min Rain = 0
KSC1 270034Z 12013KT 27/19 A2989 RMK A01 T02660186  RH  062%=      5-min Rain = 0
KSC1 270035Z 12014KT 27/19 A2989 RMK A01 T02660186  RH  061%=      5-min Rain = 0
KSC1 270036Z 12012KT 27/19 A2989 RMK A01 T02660185  RH  061%=      5-min Rain = 0
KSC1 270037Z 12015KT 27/19 A2989 RMK A01 T02660185  RH  061%=      5-min Rain = 0
KSC1 270038Z 12015KT 27/19 A2989 RMK A01 T02660185  RH  061%=      5-min Rain = 0
KSC1 270039Z 12013KT 27/19 A2989 RMK A01 T02660185  RH  061%=      5-min Rain = 0
KSC1 270040Z 13011KT 27/19 A2989 RMK A01 T02660185  RH  061%=      5-min Rain = 0
KSC1 270041Z 13011KT 27/19 A2989 RMK A01 T02660186  RH  061%=      5-min Rain = 0
KSC1 270042Z 13012KT 27/19 A2989 RMK A01 T02660186  RH  062%=      5-min Rain = 0
KSC1 270043Z 12012G17KT 27/19 A2989 RMK A01 T02650186  RH  062%=      5-min Rain = 0
KSC1 270044Z 12013G19KT 27/19 A2989 RMK A01 T02650185  RH  062%=      5-min Rain = 0
KSC1 270045Z 12012KT 27/19 A2989 RMK A01 T02650186  RH  062%=      5-min Rain = 0
KSC1 270046Z 12013KT 27/19 A2989 RMK A01 T02650186  RH  062%=      5-min Rain = 0
KSC1 270047Z 12014KT 27/19 A2988 RMK A01 T02650185  RH  062%=      5-min Rain = 0
KSC1 270048Z 12015KT 27/19 A2989 RMK A01 T02650185  RH  061%=      5-min Rain = 0
KSC1 270049Z 13013KT 26/18 A2988 RMK A01 T02640184  RH  061%=      5-min Rain = 0
KSC1 270050Z 12012KT 27/19 A2988 RMK A01 T02650185  RH  062%=      5-min Rain = 0
KSC1 270051Z 12014KT 27/19 A2988 RMK A01 T02650185  RH  062%=      5-min Rain = 0
KSC1 270052Z 12014G19KT 27/19 A2988 RMK A01 T02650185  RH  062%=      5-min Rain = 0
KSC1 270053Z 12015KT 26/18 A2988 RMK A01 T02640184  RH  061%=      5-min Rain = 0
KSC1 270054Z 12012KT 26/18 A2988 RMK A01 T02640184  RH  061%=      5-min Rain = 0
KSC1 270055Z 13012KT 26/19 A2988 RMK A01 T02640185  RH  062%=      5-min Rain = 0
KSC1 270056Z 12011KT 26/19 A2988 RMK A01 T02640185  RH  062%=      5-min Rain = 0
KSC1 270057Z 12010KT 26/19 A2989 RMK A01 T02630185  RH  062%=      5-min Rain = 0
KSC1 270058Z 12010KT 26/19 A2988 RMK A01 T02630185  RH  062%=      5-min Rain = 0
KSC1 270059Z 13011KT 26/19 A2989 RMK A01 T02620185  RH  062%=      5-min Rain = 0
KSC1 270100Z 13013G19KT 26/18 A2989 RMK A01 T02620184  RH  062%=      5-min Rain = 0
KSC1 270101Z 12011KT 26/18 A2989 RMK A01 T02630184  RH  062%=      5-min Rain = 0
KSC1 270102Z 13013G18KT 26/19 A2989 RMK A01 T02630185  RH  062%=      5-min Rain = 0
KSC1 270103Z 12014KT 26/18 A2989 RMK A01 T02620184  RH  062%=      5-min Rain = 0
KSC1 270104Z 13011KT 26/18 A2989 RMK A01 T02630184  RH  062%=      5-min Rain = 0
KSC1 270105Z 13011KT 26/19 A2989 RMK A01 T02630185  RH  062%=      5-min Rain = 0
KSC1 270106Z 13009KT 26/19 A2989 RMK A01 T02620185  RH  063%=      5-min Rain = 0
KSC1 270107Z 13011KT 26/19 A2989 RMK A01 T02620185  RH  063%=      5-min Rain = 0
KSC1 270108Z 13009KT 26/19 A2989 RMK A01 T02620185  RH  063%=      5-min Rain = 0
KSC1 270109Z 13011KT 26/19 A2989 RMK A01 T02620185  RH  063%=      5-min Rain = 0
KSC1 270110Z 13011KT 26/19 A299 RMK A01 T02610185  RH  063%=      5-min Rain = 0
KSC1 270111Z 14010KT 26/19 A299 RMK A01 T02610185  RH  063%=      5-min Rain = 0
KSC1 270112Z 14009KT 26/19 A299 RMK A01 T02610185  RH  063%=      5-min Rain = 0
KSC1 270113Z 13010KT 26/19 A299 RMK A01 T02610186  RH  063%=      5-min Rain = 0
KSC1 270114Z 13008KT 26/19 A299 RMK A01 T02610186  RH  063%=      5-min Rain = 0
KSC1 270115Z 13011G16KT 26/19 A299 RMK A01 T02600186  RH  064%=      5-min Rain = 0
KSC1 270116Z 13010KT 26/19 A299 RMK A01 T02600186  RH  064%=      5-min Rain = 0
KSC1 270117Z 13010KT 26/19 A299 RMK A01 T02600186  RH  064%=      5-min Rain = 0
KSC1 270118Z 13010KT 26/19 A299 RMK A01 T02600186  RH  064%=      5-min Rain = 0
KSC1 270119Z 13011KT 26/19 A299 RMK A01 T02600186  RH  064%=      5-min Rain = 0
KSC1 270120Z 13010KT 26/19 A299 RMK A01 T02600186  RH  064%=      5-min Rain = 0
KSC1 270121Z 13010KT 26/19 A299 RMK A01 T02600186  RH  064%=      5-min Rain = 0
KSC1 270122Z 13010KT 26/19 A299 RMK A01 T02600186  RH  064%=      5-min Rain = 0
KSC1 270123Z 14010KT 26/19 A299 RMK A01 T02600186  RH  064%=      5-min Rain = 0
KSC1 270124Z 12009KT 26/19 A299 RMK A01 T02600186  RH  064%=      5-min Rain = 0
KSC1 270125Z 14007KT 26/19 A299 RMK A01 T02590186  RH  064%=      5-min Rain = 0
KSC1 270126Z 13008KT 26/19 A299 RMK A01 T02590186  RH  064%=      5-min Rain = 0
KSC1 270127Z 14009KT 26/19 A299 RMK A01 T02590186  RH  064%=      5-min Rain = 0
KSC1 270128Z 13008KT 26/19 A299 RMK A01 T02590186  RH  064%=      5-min Rain = 0
KSC1 270129Z 14009KT 26/19 A299 RMK A01 T02580186  RH  064%=      5-min Rain = 0
KSC1 270130Z 14008G13KT 26/19 A299 RMK A01 T02580186  RH  064%=      5-min Rain = 0
KSC1 270131Z 14008KT 26/19 A299 RMK A01 T02580186  RH  064%=      5-min Rain = 0
KSC1 270132Z 14009KT 26/19 A299 RMK A01 T02580185  RH  064%=      5-min Rain = 0
KSC1 270133Z 14010KT 26/19 A299 RMK A01 T02580185  RH  064%=      5-min Rain = 0
KSC1 270134Z 14009KT 26/19 A2991 RMK A01 T02590185  RH  064%=      5-min Rain = 0
KSC1 270135Z 14007KT 26/19 A2991 RMK A01 T02590185  RH  064%=      5-min Rain = 0
KSC1 270136Z 15008G13KT 26/19 A2991 RMK A01 T02580186  RH  064%=      5-min Rain = 0
KSC1 270137Z 14007KT 26/19 A2991 RMK A01 T02580186  RH  064%=      5-min Rain = 0
KSC1 270138Z 14010KT 26/19 A2991 RMK A01 T02570185  RH  064%=      5-min Rain = 0
KSC1 270139Z 14008G13KT 26/19 A2991 RMK A01 T02580185  RH  064%=      5-min Rain = 0
KSC1 270140Z 15007KT 26/19 A2991 RMK A01 T02580185  RH  064%=      5-min Rain = 0
KSC1 270141Z 14010KT 26/19 A2991 RMK A01 T02580185  RH  064%=      5-min Rain = 0
KSC1 270142Z 14010KT 26/18 A2991 RMK A01 T02580184  RH  064%=      5-min Rain = 0
KSC1 270143Z 14010KT 26/18 A2991 RMK A01 T02580184  RH  064%=      5-min Rain = 0
KSC1 270144Z 14009KT 26/19 A2991 RMK A01 T02580185  RH  064%=      5-min Rain = 0
KSC1 270145Z 14007KT 26/19 A2991 RMK A01 T02580185  RH  064%=      5-min Rain = 0
KSC1 270146Z 14008KT 26/19 A2991 RMK A01 T02580185  RH  064%=      5-min Rain = 0
KSC1 270147Z 15007KT 26/19 A2991 RMK A01 T02570185  RH  064%=      5-min Rain = 0
KSC1 270148Z 14007KT 26/19 A2991 RMK A01 T02570185  RH  064%=      5-min Rain = 0
KSC1 270149Z 13009KT 26/19 A2991 RMK A01 T02560185  RH  065%=      5-min Rain = 0
KSC1 270150Z 14008G13KT 26/19 A2991 RMK A01 T02560185  RH  065%=      5-min Rain = 0
KSC1 270151Z 13008KT 26/19 A2991 RMK A01 T02560185  RH  065%=      5-min Rain = 0
KSC1 270152Z 14010KT 26/18 A2991 RMK A01 T02560184  RH  065%=      5-min Rain = 0
KSC1 270153Z 13007KT 26/18 A299 RMK A01 T02560184  RH  065%=      5-min Rain = 0
KSC1 270154Z 13007KT 26/19 A299 RMK A01 T02550185  RH  065%=      5-min Rain = 0
KSC1 270155Z 13007KT 26/19 A299 RMK A01 T02550185  RH  065%=      5-min Rain = 0
KSC1 270156Z 13006KT 25/19 A299 RMK A01 T02540185  RH  066%=      5-min Rain = 0
KSC1 270157Z 14008KT 25/19 A299 RMK A01 T02540185  RH  066%=      5-min Rain = 0
KSC1 270158Z 13009KT 25/19 A299 RMK A01 T02530185  RH  066%=      5-min Rain = 0
KSC1 270159Z 13006KT 25/18 A299 RMK A01 T02530184  RH  066%=      5-min Rain = 0
KSC1 270200Z 14008KT 25/19 A299 RMK A01 T02530185  RH  066%=      5-min Rain = 0
KSC1 270201Z 13006KT 25/19 A299 RMK A01 T02520185  RH  066%=      5-min Rain = 0
KSC1 270202Z 14009KT 25/19 A299 RMK A01 T02530185  RH  066%=      5-min Rain = 0
KSC1 270203Z 13007KT 25/19 A299 RMK A01 T02520185  RH  066%=      5-min Rain = 0
KSC1 270204Z 14007KT 25/19 A299 RMK A01 T02520185  RH  066%=      5-min Rain = 0
KSC1 270205Z 13006KT 25/19 A299 RMK A01 T02520185  RH  066%=      5-min Rain = 0
KSC1 270206Z 14008KT 25/19 A299 RMK A01 T02510185  RH  066%=      5-min Rain = 0
KSC1 270207Z 13007KT 25/18 A299 RMK A01 T02510184  RH  066%=      5-min Rain = 0
KSC1 270208Z 13007KT 25/18 A299 RMK A01 T02510184  RH  066%=      5-min Rain = 0
KSC1 270209Z 13007KT 25/18 A299 RMK A01 T02510184  RH  066%=      5-min Rain = 0
KSC1 270210Z 13008KT 25/18 A299 RMK A01 T02510184  RH  066%=      5-min Rain = 0
KSC1 270211Z 13008KT 25/18 A299 RMK A01 T02510184  RH  066%=      5-min Rain = 0
KSC1 270212Z 13007KT 25/18 A299 RMK A01 T02510184  RH  066%=      5-min Rain = 0
KSC1 270213Z 13007KT 25/18 A299 RMK A01 T02510184  RH  066%=      5-min Rain = 0
KSC1 270214Z 13006KT 25/18 A299 RMK A01 T02510184  RH  066%=      5-min Rain = 0
KSC1 270215Z 13009KT 25/18 A299 RMK A01 T02510184  RH  067%=      5-min Rain = 0
KSC1 270216Z 13008KT 25/18 A299 RMK A01 T02500184  RH  067%=      5-min Rain = 0
KSC1 270217Z 13007KT 25/18 A299 RMK A01 T02490184  RH  067%=      5-min Rain = 0
KSC1 270218Z 13007KT 25/18 A299 RMK A01 T02490184  RH  067%=      5-min Rain = 0
KSC1 270219Z 13008KT 25/18 A299 RMK A01 T02490184  RH  067%=      5-min Rain = 0
KSC1 270220Z 13007KT 25/18 A299 RMK A01 T02480184  RH  068%=      5-min Rain = 0
KSC1 270221Z 13008KT 25/18 A2989 RMK A01 T02480184  RH  067%=      5-min Rain = 0
KSC1 270222Z 13008KT 25/18 A2989 RMK A01 T02480184  RH  067%=      5-min Rain = 0
KSC1 270223Z 13008KT 25/18 A2989 RMK A01 T02480184  RH  067%=      5-min Rain = 0
KSC1 270224Z 13007KT 25/18 A2989 RMK A01 T02480184  RH  067%=      5-min Rain = 0
KSC1 270225Z 13008KT 25/18 A2989 RMK A01 T02480184  RH  067%=      5-min Rain = 0
KSC1 270226Z 13008KT 25/18 A2989 RMK A01 T02480184  RH  067%=      5-min Rain = 0
KSC1 270227Z 13008KT 25/18 A2989 RMK A01 T02480184  RH  068%=      5-min Rain = 0
KSC1 270228Z 13008KT 25/18 A2989 RMK A01 T02480184  RH  068%=      5-min Rain = 0
KSC1 270229Z 13007KT 25/18 A2989 RMK A01 T02480184  RH  068%=      5-min Rain = 0
KSC1 270230Z 12007KT 25/18 A2989 RMK A01 T02480184  RH  068%=      5-min Rain = 0
KSC1 270231Z 13008KT 25/18 A2989 RMK A01 T02470184  RH  068%=      5-min Rain = 0
KSC1 270232Z 13008KT 25/18 A2989 RMK A01 T02470184  RH  068%=      5-min Rain = 0
KSC1 270233Z 14007KT 25/18 A2989 RMK A01 T02470184  RH  068%=      5-min Rain = 0
KSC1 270234Z 13009G14KT 25/18 A2989 RMK A01 T02470184  RH  068%=      5-min Rain = 0
KSC1 270235Z 13009KT 25/18 A2989 RMK A01 T02480183  RH  067%=      5-min Rain = 0
KSC1 270236Z 13008KT 25/18 A2989 RMK A01 T02480183  RH  067%=      5-min Rain = 0
KSC1 270237Z 13008KT 25/18 A2989 RMK A01 T02480183  RH  067%=      5-min Rain = 0
KSC1 270238Z 13007KT 25/18 A2989 RMK A01 T02480183  RH  067%=      5-min Rain = 0
KSC1 270239Z 13008KT 25/18 A2989 RMK A01 T02480184  RH  067%=      5-min Rain = 0
KSC1 270240Z 13009KT 25/18 A2989 RMK A01 T02480184  RH  068%=      5-min Rain = 0
KSC1 270241Z 13009KT 25/18 A2989 RMK A01 T02470184  RH  068%=      5-min Rain = 0
KSC1 270242Z 13010KT 25/18 A2989 RMK A01 T02470183  RH  068%=      5-min Rain = 0
KSC1 270243Z 13008KT 25/18 A2989 RMK A01 T02470183  RH  067%=      5-min Rain = 0
KSC1 270244Z 13008KT 25/18 A2989 RMK A01 T02480183  RH  067%=      5-min Rain = 0
KSC1 270245Z 13007KT 25/18 A2989 RMK A01 T02470183  RH  068%=      5-min Rain = 0
KSC1 270246Z 13008KT 25/18 A2989 RMK A01 T02470183  RH  068%=      5-min Rain = 0
KSC1 270247Z 13008G13KT 25/18 A299 RMK A01 T02460183  RH  068%=      5-min Rain = 0
KSC1 270248Z 13008KT 25/18 A299 RMK A01 T02470183  RH  068%=      5-min Rain = 0
KSC1 270249Z 14007KT 25/18 A299 RMK A01 T02460183  RH  068%=      5-min Rain = 0
KSC1 270250Z 13009KT 25/18 A299 RMK A01 T02460183  RH  068%=      5-min Rain = 0
KSC1 270251Z 14008KT 25/18 A299 RMK A01 T02460183  RH  068%=      5-min Rain = 0
KSC1 270252Z 13007KT 25/18 A299 RMK A01 T02460184  RH  068%=      5-min Rain = 0
KSC1 270253Z 13008KT 25/18 A299 RMK A01 T02460183  RH  068%=      5-min Rain = 0
KSC1 270254Z 13007KT 25/18 A299 RMK A01 T02450183  RH  068%=      5-min Rain = 0
KSC1 270255Z 13007KT 25/18 A299 RMK A01 T02450183  RH  068%=      5-min Rain = 0
KSC1 270256Z 13008KT 25/18 A299 RMK A01 T02450183  RH  068%=      5-min Rain = 0
KSC1 270257Z 14007KT 25/18 A299 RMK A01 T02450183  RH  068%=      5-min Rain = 0
KSC1 270258Z 13008KT 25/18 A299 RMK A01 T02450183  RH  068%=      5-min Rain = 0
KSC1 270259Z 13009KT 25/18 A299 RMK A01 T02450183  RH  068%=      5-min Rain = 0
KSC1 270300Z 14010KT 25/18 A299 RMK A01 T02450183  RH  068%=      5-min Rain = 0
KSC1 270301Z 13008KT 25/18 A299 RMK A01 T02450183  RH  068%=      5-min Rain = 0
KSC1 270302Z 13008KT 25/18 A299 RMK A01 T02450183  RH  068%=      5-min Rain = 0
KSC1 270303Z 13007KT 25/18 A299 RMK A01 T02450183  RH  068%=      5-min Rain = 0
KSC1 270304Z 13007KT 25/18 A299 RMK A01 T02450183  RH  069%=      5-min Rain = 0
KSC1 270305Z 13009KT 25/18 A299 RMK A01 T02450183  RH  069%=      5-min Rain = 0
KSC1 270306Z 13008KT 24/18 A299 RMK A01 T02440183  RH  069%=      5-min Rain = 0
KSC1 270307Z 13009KT 24/18 A299 RMK A01 T02440183  RH  069%=      5-min Rain = 0
KSC1 270308Z 13007KT 24/18 A299 RMK A01 T02440183  RH  069%=      5-min Rain = 0
KSC1 270309Z 13007KT 24/18 A299 RMK A01 T02440183  RH  069%=      5-min Rain = 0
KSC1 270310Z 13007KT 24/18 A299 RMK A01 T02440183  RH  069%=      5-min Rain = 0
KSC1 270311Z 14007KT 24/18 A299 RMK A01 T02430183  RH  069%=      5-min Rain = 0
KSC1 270312Z 13007KT 24/18 A299 RMK A01 T02430184  RH  069%=      5-min Rain = 0
KSC1 270313Z 13007KT 24/18 A299 RMK A01 T02430183  RH  069%=      5-min Rain = 0
KSC1 270314Z 13007KT 24/18 A299 RMK A01 T02420183  RH  069%=      5-min Rain = 0
KSC1 270315Z 13007KT 24/18 A299 RMK A01 T02420183  RH  070%=      5-min Rain = 0
KSC1 270316Z 13008KT 24/18 A299 RMK A01 T02420183  RH  070%=      5-min Rain = 0
KSC1 270317Z 13007KT 24/18 A299 RMK A01 T02420183  RH  070%=      5-min Rain = 0
KSC1 270318Z 13007KT 24/18 A299 RMK A01 T02410184  RH  070%=      5-min Rain = 0
KSC1 270319Z 13008KT 24/18 A299 RMK A01 T02410183  RH  070%=      5-min Rain = 0
KSC1 270320Z 13007KT 24/18 A299 RMK A01 T02400184  RH  071%=      5-min Rain = 0
KSC1 270321Z 13007KT 24/18 A299 RMK A01 T02400184  RH  071%=      5-min Rain = 0
KSC1 270322Z 12007KT 24/18 A2989 RMK A01 T02390184  RH  071%=      5-min Rain = 0
KSC1 270323Z 13008KT 24/18 A2989 RMK A01 T02380184  RH  072%=      5-min Rain = 0
KSC1 270324Z 13007KT 24/18 A2989 RMK A01 T02380184  RH  072%=      5-min Rain = 0
KSC1 270325Z 13008KT 24/18 A2989 RMK A01 T02380184  RH  072%=      5-min Rain = 0
KSC1 270326Z 12007KT 24/18 A2989 RMK A01 T02380184  RH  072%=      5-min Rain = 0
KSC1 270327Z 13007KT 24/18 A2989 RMK A01 T02380184  RH  072%=      5-min Rain = 0
KSC1 270328Z 13007KT 24/18 A2989 RMK A01 T02370184  RH  072%=      5-min Rain = 0
KSC1 270329Z 13007KT 24/18 A2989 RMK A01 T02370184  RH  072%=      5-min Rain = 0
KSC1 270330Z 13008KT 24/18 A2989 RMK A01 T02370184  RH  072%=      5-min Rain = 0
KSC1 270331Z 13007KT 24/18 A2989 RMK A01 T02370184  RH  072%=      5-min Rain = 0
KSC1 270332Z 13008KT 24/18 A299 RMK A01 T02370183  RH  072%=      5-min Rain = 0
KSC1 270333Z 13008KT 24/18 A299 RMK A01 T02370184  RH  072%=      5-min Rain = 0
KSC1 270334Z 13008KT 24/18 A299 RMK A01 T02380184  RH  072%=      5-min Rain = 0
KSC1 270335Z 13008KT 24/18 A299 RMK A01 T02380184  RH  072%=      5-min Rain = 0
KSC1 270336Z 13007KT 24/18 A299 RMK A01 T02370184  RH  072%=      5-min Rain = 0
KSC1 270337Z 13007KT 24/18 A299 RMK A01 T02370184  RH  072%=      5-min Rain = 0
KSC1 270338Z 13008KT 24/18 A299 RMK A01 T02370184  RH  072%=      5-min Rain = 0
KSC1 270339Z 13007KT 24/18 A299 RMK A01 T02360184  RH  072%=      5-min Rain = 0
KSC1 270340Z 13008KT 24/18 A299 RMK A01 T02360184  RH  072%=      5-min Rain = 0
KSC1 270341Z 13008KT 24/18 A299 RMK A01 T02360184  RH  073%=      5-min Rain = 0
KSC1 270342Z 13008KT 24/18 A299 RMK A01 T02350184  RH  073%=      5-min Rain = 0
KSC1 270343Z 13007KT 24/18 A299 RMK A01 T02350184  RH  073%=      5-min Rain = 0
KSC1 270344Z 13007KT 24/18 A299 RMK A01 T02350184  RH  073%=      5-min Rain = 0
KSC1 270345Z 13009KT 23/18 A299 RMK A01 T02340184  RH  073%=      5-min Rain = 0
KSC1 270346Z 13008KT 23/18 A299 RMK A01 T02340184  RH  073%=      5-min Rain = 0
KSC1 270347Z 14008KT 24/18 A299 RMK A01 T02350184  RH  073%=      5-min Rain = 0
KSC1 270348Z 14008KT 24/18 A299 RMK A01 T02350184  RH  073%=      5-min Rain = 0
KSC1 270349Z 13007KT 24/18 A299 RMK A01 T02350184  RH  073%=      5-min Rain = 0
KSC1 270350Z 13008KT 24/18 A299 RMK A01 T02350184  RH  073%=      5-min Rain = 0
KSC1 270351Z 13008KT 23/18 A299 RMK A01 T02340184  RH  073%=      5-min Rain = 0
KSC1 270352Z 13008KT 23/18 A299 RMK A01 T02340184  RH  073%=      5-min Rain = 0
KSC1 270353Z 13009KT 24/18 A299 RMK A01 T02350184  RH  073%=      5-min Rain = 0
KSC1 270354Z 13009KT 24/18 A299 RMK A01 T02350184  RH  073%=      5-min Rain = 0
KSC1 270355Z 13008KT 24/18 A299 RMK A01 T02350184  RH  073%=      5-min Rain = 0
KSC1 270356Z 13008KT 23/18 A299 RMK A01 T02340184  RH  073%=      5-min Rain = 0
KSC1 270357Z 13009KT 23/18 A299 RMK A01 T02340184  RH  073%=      5-min Rain = 0
KSC1 270358Z 13009KT 24/18 A299 RMK A01 T02350184  RH  073%=      5-min Rain = 0
KSC1 270359Z 14009KT 24/18 A299 RMK A01 T02350184  RH  073%=      5-min Rain = 0
KSC1 270400Z 13009KT 24/19 A299 RMK A01 T02350185  RH  073%=      5-min Rain = 0
KSC1 270401Z 13009KT 24/18 A299 RMK A01 T02350184  RH  073%=      5-min Rain = 0
KSC1 270402Z 13009KT 24/19 A299 RMK A01 T02350185  RH  073%=      5-min Rain = 0
KSC1 270403Z 13010KT 23/19 A299 RMK A01 T02340185  RH  074%=      5-min Rain = 0
KSC1 270404Z 13008KT 23/19 A299 RMK A01 T02340185  RH  074%=      5-min Rain = 0
KSC1 270405Z 13009KT 23/19 A299 RMK A01 T02340185  RH  074%=      5-min Rain = 0
KSC1 270406Z 13009KT 23/19 A299 RMK A01 T02340185  RH  074%=      5-min Rain = 0
KSC1 270407Z 13008KT 23/19 A299 RMK A01 T02340185  RH  074%=      5-min Rain = 0
KSC1 270408Z 13011KT 23/19 A299 RMK A01 T02340185  RH  074%=      5-min Rain = 0
KSC1 270409Z 13008KT 23/19 A299 RMK A01 T02340185  RH  074%=      5-min Rain = 0
KSC1 270410Z 13009KT 23/19 A299 RMK A01 T02340185  RH  074%=      5-min Rain = 0
KSC1 270411Z 13009KT 24/19 A299 RMK A01 T02350185  RH  074%=      5-min Rain = 0
KSC1 270412Z 13011KT 23/19 A299 RMK A01 T02340185  RH  074%=      5-min Rain = 0
KSC1 270413Z 14009KT 24/19 A299 RMK A01 T02350185  RH  074%=      5-min Rain = 0
KSC1 270414Z 14009G14KT 24/19 A299 RMK A01 T02350185  RH  074%=      5-min Rain = 0
KSC1 270415Z 14010KT 24/19 A299 RMK A01 T02350186  RH  074%=      5-min Rain = 0
KSC1 270416Z 14010KT 24/19 A299 RMK A01 T02350186  RH  074%=      5-min Rain = 0
KSC1 270417Z 14012KT 24/19 A299 RMK A01 T02350186  RH  074%=      5-min Rain = 0
KSC1 270418Z 14011KT 24/19 A299 RMK A01 T02350186  RH  074%=      5-min Rain = 0
KSC1 270419Z 13011G17KT 24/19 A299 RMK A01 T02360186  RH  074%=      5-min Rain = 0
KSC1 270420Z 14012KT 24/19 A299 RMK A01 T02370186  RH  073%=      5-min Rain = 0
KSC1 270421Z 13011KT 24/19 A299 RMK A01 T02370186  RH  073%=      5-min Rain = 0
KSC1 270422Z 14009KT 24/19 A299 RMK A01 T02380187  RH  073%=      5-min Rain = 0
KSC1 270423Z 14010G15KT 24/19 A299 RMK A01 T02380186  RH  073%=      5-min Rain = 0
KSC1 270424Z 14009KT 24/19 A299 RMK A01 T02370186  RH  073%=      5-min Rain = 0
KSC1 270425Z 14010KT 24/19 A299 RMK A01 T02370187  RH  073%=      5-min Rain = 0
KSC1 270426Z 14010KT 24/19 A299 RMK A01 T02370187  RH  073%=      5-min Rain = 0
KSC1 270427Z 14010KT 24/19 A299 RMK A01 T02370187  RH  074%=      5-min Rain = 0
KSC1 270428Z 14010KT 24/19 A299 RMK A01 T02360187  RH  074%=      5-min Rain = 0
KSC1 270429Z 14010KT 24/19 A299 RMK A01 T02360187  RH  074%=      5-min Rain = 0
KSC1 270430Z 14010KT 24/19 A299 RMK A01 T02360187  RH  074%=      5-min Rain = 0
KSC1 270431Z 14009KT 24/19 A299 RMK A01 T02360187  RH  074%=      5-min Rain = 0
KSC1 270432Z 14010KT 24/19 A299 RMK A01 T02360187  RH  074%=      5-min Rain = 0
KSC1 270433Z 14007KT 24/19 A299 RMK A01 T02360187  RH  074%=      5-min Rain = 0
KSC1 270434Z 13010KT 24/19 A299 RMK A01 T02360187  RH  074%=      5-min Rain = 0
KSC1 270435Z 13009KT 24/19 A299 RMK A01 T02350187  RH  074%=      5-min Rain = 0
KSC1 270436Z 14012KT 24/19 A299 RMK A01 T02350187  RH  074%=      5-min Rain = 0
KSC1 270437Z 14009KT 24/19 A299 RMK A01 T02350187  RH  074%=      5-min Rain = 0
KSC1 270438Z 13011KT 24/19 A299 RMK A01 T02350187  RH  074%=      5-min Rain = 0
KSC1 270439Z 13009KT 24/19 A299 RMK A01 T02350187  RH  074%=      5-min Rain = 0
KSC1 270440Z 14011KT 24/19 A299 RMK A01 T02350188  RH  075%=      5-min Rain = 0
KSC1 270441Z 13010KT 24/19 A299 RMK A01 T02350188  RH  075%=      5-min Rain = 0
KSC1 270442Z 13009KT 24/19 A299 RMK A01 T02350188  RH  075%=      5-min Rain = 0
KSC1 270443Z 13009KT 23/19 A299 RMK A01 T02340187  RH  075%=      5-min Rain = 0
KSC1 270444Z 13008KT 23/19 A299 RMK A01 T02330188  RH  075%=      5-min Rain = 0
KSC1 270445Z 13008KT 23/19 A299 RMK A01 T02320187  RH  076%=      5-min Rain = 0
KSC1 270446Z 13010KT 23/19 A299 RMK A01 T02320188  RH  076%=      5-min Rain = 0
KSC1 270447Z 13010KT 23/19 A299 RMK A01 T02320188  RH  076%=      5-min Rain = 0
KSC1 270448Z 13008KT 23/19 A299 RMK A01 T02320188  RH  076%=      5-min Rain = 0
KSC1 270449Z 13009KT 23/19 A299 RMK A01 T02310188  RH  076%=      5-min Rain = 0
KSC1 270450Z 13009KT 23/19 A299 RMK A01 T02310188  RH  077%=      5-min Rain = 0
KSC1 270451Z 13009KT 23/19 A299 RMK A01 T02300188  RH  077%=      5-min Rain = 0
KSC1 270452Z 13008KT 23/19 A299 RMK A01 T02300188  RH  077%=      5-min Rain = 0
KSC1 270453Z 13009KT 23/19 A299 RMK A01 T02290188  RH  078%=      5-min Rain = 0
KSC1 270454Z 14009KT 23/19 A299 RMK A01 T02290188  RH  078%=      5-min Rain = 0
KSC1 270455Z 13009KT 23/19 A299 RMK A01 T02290188  RH  078%=      5-min Rain = 0
KSC1 270456Z 13009KT 23/19 A299 RMK A01 T02290188  RH  078%=      5-min Rain = 0
KSC1 270457Z 13009KT 23/19 A299 RMK A01 T02290188  RH  078%=      5-min Rain = 0
KSC1 270458Z 13009KT 23/19 A2989 RMK A01 T02290189  RH  078%=      5-min Rain = 0
KSC1 270459Z 13010KT 23/19 A2989 RMK A01 T02290188  RH  078%=      5-min Rain = 0

Page generated in 0.0329 seconds.